PWSweather.com
Personal Weather Stations
Station Observations
KM01CL
Kitemaniak 01, Castiglione Del LagoIT 06061

Kitemaniak 01Castiglione Del LagoIT 06061

Lat: 43.133808, Lon: 12.045753

Elevation: 997

Station Type: Ventus W831

High Low Average
Temperature 72.9°F22.7°C 53.4°F11.9°C 61.7°F16.5°C
Dew Point 64.2°F17.9°C 46.4°F8.0°C 55.8°F13.2°C
Winds 13.0 mph 20.9 kmh Calm Calm 2.0 mph ESE3.2 kmh ESE
Wind Gusts 15.2 mph24.5 kmh -- 3.0 mph4.8 kmh
Humidity 94% 65% 82%
Pressure 30.09 in1019.0 mb 29.84 in1010.5 mb -
Precipitation 0.28 in7.1 mm - -
Hour Temp Dew Point Humidity Winds Wind Gusts Pressure Precip Precip Rate Daily Precip Total
12:01 AM 55.4°F13.0°C 47.3°F8.5°C 74% Calm Calm -- 30.09 in1019.0 mb 0.00 in0.0 mm 0.00 in0.0 mm 0.00 in0.0 mm
12:03 AM 55.4°F13.0°C 47.3°F8.5°C 74% Calm Calm -- 30.09 in1019.0 mb 0.00 in0.0 mm 0.00 in0.0 mm 0.00 in0.0 mm
12:05 AM 55.4°F13.0°C 47.3°F8.5°C 74% Calm Calm -- 30.10 in1019.3 mb 0.00 in0.0 mm 0.00 in0.0 mm 0.00 in0.0 mm
12:07 AM 55.4°F13.0°C 47.3°F8.5°C 74% Calm Calm -- 30.09 in1019.0 mb 0.00 in0.0 mm 0.00 in0.0 mm 0.00 in0.0 mm
12:09 AM 55.2°F12.9°C 47.1°F8.4°C 74% Calm Calm -- 30.09 in1019.0 mb 0.00 in0.0 mm 0.00 in0.0 mm 0.00 in0.0 mm
12:11 AM 55.2°F12.9°C 47.1°F8.4°C 74% Calm Calm -- 30.09 in1019.0 mb 0.00 in0.0 mm 0.00 in0.0 mm 0.00 in0.0 mm
12:13 AM 55.0°F12.8°C 46.9°F8.3°C 74% Calm Calm -- 30.10 in1019.3 mb 0.00 in0.0 mm 0.00 in0.0 mm 0.00 in0.0 mm
12:15 AM 55.0°F12.8°C 46.9°F8.3°C 74% Calm Calm -- 30.09 in1019.0 mb 0.00 in0.0 mm 0.00 in0.0 mm 0.00 in0.0 mm
12:17 AM 55.0°F12.8°C 46.9°F8.3°C 74% Calm Calm -- 30.09 in1019.0 mb 0.00 in0.0 mm 0.00 in0.0 mm 0.00 in0.0 mm
12:19 AM 55.0°F12.8°C 46.9°F8.3°C 74% Calm Calm -- 30.10 in1019.3 mb 0.00 in0.0 mm 0.00 in0.0 mm 0.00 in0.0 mm
12:21 AM 55.0°F12.8°C 46.9°F8.3°C 74% Calm Calm -- 30.09 in1019.0 mb 0.00 in0.0 mm 0.00 in0.0 mm 0.00 in0.0 mm
12:23 AM 55.2°F12.9°C 47.1°F8.4°C 74% Calm Calm -- 30.09 in1019.0 mb 0.00 in0.0 mm 0.00 in0.0 mm 0.00 in0.0 mm
12:25 AM 55.2°F12.9°C 47.1°F8.4°C 74% Calm Calm -- 30.09 in1019.0 mb 0.00 in0.0 mm 0.00 in0.0 mm 0.00 in0.0 mm
12:27 AM 55.0°F12.8°C 46.9°F8.3°C 74% Calm Calm -- 30.09 in1019.0 mb 0.00 in0.0 mm 0.00 in0.0 mm 0.00 in0.0 mm
12:29 AM 55.0°F12.8°C 46.9°F8.3°C 74% Calm Calm -- 30.09 in1019.0 mb 0.00 in0.0 mm 0.00 in0.0 mm 0.00 in0.0 mm
12:31 AM 55.0°F12.8°C 46.9°F8.3°C 74% Calm Calm -- 30.08 in1018.6 mb 0.00 in0.0 mm 0.00 in0.0 mm 0.00 in0.0 mm
12:33 AM 55.0°F12.8°C 46.9°F8.3°C 74% Calm Calm -- 30.09 in1019.0 mb 0.00 in0.0 mm 0.00 in0.0 mm 0.00 in0.0 mm
12:36 AM 55.0°F12.8°C 47.3°F8.5°C 75% Calm Calm -- 30.09 in1019.0 mb 0.00 in0.0 mm 0.00 in0.0 mm 0.00 in0.0 mm
12:38 AM 55.2°F12.9°C 47.4°F8.6°C 75% Calm Calm -- 30.09 in1019.0 mb 0.00 in0.0 mm 0.00 in0.0 mm 0.00 in0.0 mm
12:40 AM 55.2°F12.9°C 47.4°F8.6°C 75% Calm Calm -- 30.09 in1019.0 mb 0.00 in0.0 mm 0.00 in0.0 mm 0.00 in0.0 mm
12:42 AM 55.2°F12.9°C 47.8°F8.8°C 76% Calm Calm -- 30.09 in1019.0 mb 0.00 in0.0 mm 0.00 in0.0 mm 0.00 in0.0 mm
12:44 AM 55.2°F12.9°C 47.8°F8.8°C 76% Calm Calm -- 30.08 in1018.6 mb 0.00 in0.0 mm 0.00 in0.0 mm 0.00 in0.0 mm
12:46 AM 55.4°F13.0°C 48.0°F8.9°C 76% Calm Calm -- 30.09 in1019.0 mb 0.00 in0.0 mm 0.00 in0.0 mm 0.00 in0.0 mm
12:48 AM 55.4°F13.0°C 48.0°F8.9°C 76% Calm Calm -- 30.09 in1019.0 mb 0.00 in0.0 mm 0.00 in0.0 mm 0.00 in0.0 mm
12:50 AM 55.4°F13.0°C 48.0°F8.9°C 76% Calm Calm -- 30.09 in1019.0 mb 0.00 in0.0 mm 0.00 in0.0 mm 0.00 in0.0 mm
12:52 AM 55.4°F13.0°C 48.0°F8.9°C 76% Calm Calm -- 30.08 in1018.6 mb 0.00 in0.0 mm 0.00 in0.0 mm 0.00 in0.0 mm
12:54 AM 55.4°F13.0°C 48.0°F8.9°C 76% Calm Calm -- 30.09 in1019.0 mb 0.00 in0.0 mm 0.00 in0.0 mm 0.00 in0.0 mm
12:56 AM 55.4°F13.0°C 48.0°F8.9°C 76% Calm Calm -- 30.08 in1018.6 mb 0.00 in0.0 mm 0.00 in0.0 mm 0.00 in0.0 mm
12:58 AM 55.4°F13.0°C 48.0°F8.9°C 76% Calm Calm -- 30.09 in1019.0 mb 0.00 in0.0 mm 0.00 in0.0 mm 0.00 in0.0 mm
01:00 AM 55.4°F13.0°C 48.0°F8.9°C 76% Calm Calm -- 30.08 in1018.6 mb 0.00 in0.0 mm 0.00 in0.0 mm 0.00 in0.0 mm
01:02 AM 55.4°F13.0°C 48.0°F8.9°C 76% Calm Calm -- 30.08 in1018.6 mb 0.00 in0.0 mm 0.00 in0.0 mm 0.00 in0.0 mm
01:05 AM 55.4°F13.0°C 48.0°F8.9°C 76% Calm Calm -- 30.08 in1018.6 mb 0.00 in0.0 mm 0.00 in0.0 mm 0.00 in0.0 mm
01:07 AM 55.4°F13.0°C 48.0°F8.9°C 76% Calm Calm -- 30.09 in1019.0 mb 0.00 in0.0 mm 0.00 in0.0 mm 0.00 in0.0 mm
01:08 AM 54.9°F12.7°C 47.1°F8.4°C 75% Calm Calm -- 30.08 in1018.6 mb 0.00 in0.0 mm 0.00 in0.0 mm 0.00 in0.0 mm
01:10 AM 54.7°F12.6°C 46.9°F8.3°C 75% Calm Calm -- 30.08 in1018.6 mb 0.00 in0.0 mm 0.00 in0.0 mm 0.00 in0.0 mm
01:12 AM 54.7°F12.6°C 46.9°F8.3°C 75% Calm Calm -- 30.08 in1018.6 mb 0.00 in0.0 mm 0.00 in0.0 mm 0.00 in0.0 mm
01:14 AM 54.7°F12.6°C 46.9°F8.3°C 75% Calm Calm -- 30.08 in1018.6 mb 0.00 in0.0 mm 0.00 in0.0 mm 0.00 in0.0 mm
01:16 AM 54.7°F12.6°C 46.9°F8.3°C 75% Calm Calm -- 30.07 in1018.3 mb 0.00 in0.0 mm 0.00 in0.0 mm 0.00 in0.0 mm
01:18 AM 54.9°F12.7°C 47.4°F8.6°C 76% Calm Calm -- 30.08 in1018.6 mb 0.00 in0.0 mm 0.00 in0.0 mm 0.00 in0.0 mm
01:20 AM 54.9°F12.7°C 47.4°F8.6°C 76% Calm Calm -- 30.08 in1018.6 mb 0.00 in0.0 mm 0.00 in0.0 mm 0.00 in0.0 mm
01:22 AM 54.9°F12.7°C 47.1°F8.4°C 75% Calm Calm -- 30.08 in1018.6 mb 0.00 in0.0 mm 0.00 in0.0 mm 0.00 in0.0 mm
01:24 AM 54.9°F12.7°C 47.1°F8.4°C 75% Calm Calm -- 30.08 in1018.6 mb 0.00 in0.0 mm 0.00 in0.0 mm 0.00 in0.0 mm
01:26 AM 54.9°F12.7°C 47.1°F8.4°C 75% Calm Calm -- 30.08 in1018.6 mb 0.00 in0.0 mm 0.00 in0.0 mm 0.00 in0.0 mm
01:28 AM 54.9°F12.7°C 47.1°F8.4°C 75% Calm Calm -- 30.08 in1018.6 mb 0.00 in0.0 mm 0.00 in0.0 mm 0.00 in0.0 mm
01:30 AM 54.9°F12.7°C 47.1°F8.4°C 75% Calm Calm -- 30.08 in1018.6 mb 0.00 in0.0 mm 0.00 in0.0 mm 0.00 in0.0 mm
01:32 AM 54.9°F12.7°C 47.1°F8.4°C 75% Calm Calm -- 30.08 in1018.6 mb 0.00 in0.0 mm 0.00 in0.0 mm 0.00 in0.0 mm
01:34 AM 54.9°F12.7°C 47.1°F8.4°C 75% Calm Calm -- 30.08 in1018.6 mb 0.00 in0.0 mm 0.00 in0.0 mm 0.00 in0.0 mm
01:36 AM 54.9°F12.7°C 47.1°F8.4°C 75% Calm Calm -- 30.07 in1018.3 mb 0.00 in0.0 mm 0.00 in0.0 mm 0.00 in0.0 mm
01:38 AM 54.9°F12.7°C 47.1°F8.4°C 75% Calm Calm -- 30.08 in1018.6 mb 0.00 in0.0 mm 0.00 in0.0 mm 0.00 in0.0 mm
01:40 AM 54.9°F12.7°C 47.1°F8.4°C 75% Calm Calm -- 30.08 in1018.6 mb 0.00 in0.0 mm 0.00 in0.0 mm 0.00 in0.0 mm
01:42 AM 55.0°F12.8°C 47.3°F8.5°C 75% Calm Calm -- 30.07 in1018.3 mb 0.00 in0.0 mm 0.00 in0.0 mm 0.00 in0.0 mm
01:44 AM 55.0°F12.8°C 47.3°F8.5°C 75% Calm Calm -- 30.07 in1018.3 mb 0.00 in0.0 mm 0.00 in0.0 mm 0.00 in0.0 mm
01:46 AM 54.9°F12.7°C 47.1°F8.4°C 75% Calm Calm -- 30.08 in1018.6 mb 0.00 in0.0 mm 0.00 in0.0 mm 0.00 in0.0 mm
01:48 AM 54.9°F12.7°C 46.7°F8.2°C 74% Calm Calm -- 30.07 in1018.3 mb 0.00 in0.0 mm 0.00 in0.0 mm 0.00 in0.0 mm
01:50 AM 54.7°F12.6°C 46.6°F8.1°C 74% Calm Calm -- 30.08 in1018.6 mb 0.00 in0.0 mm 0.00 in0.0 mm 0.00 in0.0 mm
01:52 AM 54.5°F12.5°C 46.4°F8.0°C 74% Calm Calm -- 30.08 in1018.6 mb 0.00 in0.0 mm 0.00 in0.0 mm 0.00 in0.0 mm
01:54 AM 54.5°F12.5°C 46.4°F8.0°C 74% Calm Calm -- 30.07 in1018.3 mb 0.00 in0.0 mm 0.00 in0.0 mm 0.00 in0.0 mm
01:56 AM 54.3°F12.4°C 47.3°F8.5°C 77% Calm Calm -- 30.07 in1018.3 mb 0.00 in0.0 mm 0.00 in0.0 mm 0.00 in0.0 mm
01:58 AM 54.3°F12.4°C 47.3°F8.5°C 77% Calm Calm -- 30.07 in1018.3 mb 0.00 in0.0 mm 0.00 in0.0 mm 0.00 in0.0 mm
02:00 AM 54.3°F12.4°C 47.6°F8.7°C 78% Calm Calm -- 30.07 in1018.3 mb 0.00 in0.0 mm 0.00 in0.0 mm 0.00 in0.0 mm
02:02 AM 54.3°F12.4°C 47.6°F8.7°C 78% Calm Calm -- 30.07 in1018.3 mb 0.00 in0.0 mm 0.00 in0.0 mm 0.00 in0.0 mm
02:04 AM 54.3°F12.4°C 47.6°F8.7°C 78% Calm Calm -- 30.06 in1017.9 mb 0.00 in0.0 mm 0.00 in0.0 mm 0.00 in0.0 mm
02:06 AM 54.3°F12.4°C 48.0°F8.9°C 79% Calm Calm -- 30.06 in1017.9 mb 0.00 in0.0 mm 0.00 in0.0 mm 0.00 in0.0 mm
02:08 AM 54.3°F12.4°C 48.0°F8.9°C 79% Calm Calm -- 30.06 in1017.9 mb 0.00 in0.0 mm 0.00 in0.0 mm 0.00 in0.0 mm
02:10 AM 54.3°F12.4°C 48.0°F8.9°C 79% Calm Calm -- 30.06 in1017.9 mb 0.00 in0.0 mm 0.00 in0.0 mm 0.00 in0.0 mm
02:12 AM 54.3°F12.4°C 48.0°F8.9°C 79% Calm Calm -- 30.05 in1017.6 mb 0.00 in0.0 mm 0.00 in0.0 mm 0.00 in0.0 mm
02:14 AM 54.3°F12.4°C 48.0°F8.9°C 79% Calm Calm -- 30.05 in1017.6 mb 0.00 in0.0 mm 0.00 in0.0 mm 0.00 in0.0 mm
02:16 AM 54.5°F12.5°C 47.4°F8.6°C 77% Calm Calm -- 30.06 in1017.9 mb 0.00 in0.0 mm 0.00 in0.0 mm 0.00 in0.0 mm
02:18 AM 54.5°F12.5°C 47.4°F8.6°C 77% Calm Calm -- 30.06 in1017.9 mb 0.00 in0.0 mm 0.00 in0.0 mm 0.00 in0.0 mm
02:20 AM 54.7°F12.6°C 48.0°F8.9°C 78% Calm Calm -- 30.05 in1017.6 mb 0.00 in0.0 mm 0.00 in0.0 mm 0.00 in0.0 mm
02:22 AM 54.7°F12.6°C 48.0°F8.9°C 78% Calm Calm -- 30.05 in1017.6 mb 0.00 in0.0 mm 0.00 in0.0 mm 0.00 in0.0 mm
02:24 AM 54.7°F12.6°C 48.0°F8.9°C 78% Calm Calm -- 30.06 in1017.9 mb 0.00 in0.0 mm 0.00 in0.0 mm 0.00 in0.0 mm
02:26 AM 54.9°F12.7°C 48.1°F8.9°C 78% Calm Calm 0.7 mph1.1 kmh 30.05 in1017.6 mb 0.00 in0.0 mm 0.00 in0.0 mm 0.00 in0.0 mm
02:28 AM 54.9°F12.7°C 48.5°F9.2°C 79% Calm Calm -- 30.06 in1017.9 mb 0.00 in0.0 mm 0.00 in0.0 mm 0.00 in0.0 mm
02:30 AM 54.9°F12.7°C 48.5°F9.2°C 79% Calm Calm -- 30.05 in1017.6 mb 0.00 in0.0 mm 0.00 in0.0 mm 0.00 in0.0 mm
02:32 AM 54.9°F12.7°C 48.8°F9.3°C 80% Calm Calm -- 30.05 in1017.6 mb 0.00 in0.0 mm 0.00 in0.0 mm 0.00 in0.0 mm
02:34 AM 54.9°F12.7°C 48.8°F9.3°C 80% Calm Calm -- 30.05 in1017.6 mb 0.00 in0.0 mm 0.00 in0.0 mm 0.00 in0.0 mm
02:36 AM 54.9°F12.7°C 48.8°F9.3°C 80% Calm Calm -- 30.05 in1017.6 mb 0.00 in0.0 mm 0.00 in0.0 mm 0.00 in0.0 mm
02:38 AM 54.9°F12.7°C 48.8°F9.3°C 80% Calm Calm -- 30.06 in1017.9 mb 0.00 in0.0 mm 0.00 in0.0 mm 0.00 in0.0 mm
02:40 AM 54.7°F12.6°C 48.6°F9.2°C 80% Calm Calm -- 30.05 in1017.6 mb 0.00 in0.0 mm 0.00 in0.0 mm 0.00 in0.0 mm
02:42 AM 54.5°F12.5°C 48.1°F8.9°C 79% Calm Calm -- 30.05 in1017.6 mb 0.00 in0.0 mm 0.00 in0.0 mm 0.00 in0.0 mm
02:44 AM 54.3°F12.4°C 48.6°F9.2°C 81% Calm Calm -- 30.05 in1017.6 mb 0.00 in0.0 mm 0.00 in0.0 mm 0.00 in0.0 mm
02:46 AM 54.1°F12.3°C 48.4°F9.1°C 81% Calm Calm -- 30.05 in1017.6 mb 0.00 in0.0 mm 0.00 in0.0 mm 0.00 in0.0 mm
02:48 AM 54.0°F12.2°C 47.9°F8.8°C 80% Calm Calm -- 30.05 in1017.6 mb 0.00 in0.0 mm 0.00 in0.0 mm 0.00 in0.0 mm
02:50 AM 54.0°F12.2°C 47.9°F8.8°C 80% Calm Calm -- 30.05 in1017.6 mb 0.00 in0.0 mm 0.00 in0.0 mm 0.00 in0.0 mm
02:52 AM 53.8°F12.1°C 48.1°F8.9°C 81% Calm Calm -- 30.05 in1017.6 mb 0.00 in0.0 mm 0.00 in0.0 mm 0.00 in0.0 mm
02:54 AM 53.8°F12.1°C 48.1°F8.9°C 81% Calm Calm -- 30.05 in1017.6 mb 0.00 in0.0 mm 0.00 in0.0 mm 0.00 in0.0 mm
02:56 AM 53.6°F12.0°C 47.6°F8.7°C 80% Calm Calm -- 30.05 in1017.6 mb 0.00 in0.0 mm 0.00 in0.0 mm 0.00 in0.0 mm
02:58 AM 53.6°F12.0°C 47.6°F8.7°C 80% Calm Calm -- 30.04 in1017.3 mb 0.00 in0.0 mm 0.00 in0.0 mm 0.00 in0.0 mm
03:00 AM 53.4°F11.9°C 47.4°F8.6°C 80% Calm Calm -- 30.05 in1017.6 mb 0.00 in0.0 mm 0.00 in0.0 mm 0.00 in0.0 mm
03:02 AM 53.4°F11.9°C 47.7°F8.7°C 81% Calm Calm -- 30.04 in1017.3 mb 0.00 in0.0 mm 0.00 in0.0 mm 0.00 in0.0 mm
03:04 AM 53.4°F11.9°C 47.7°F8.7°C 81% Calm Calm -- 30.04 in1017.3 mb 0.00 in0.0 mm 0.00 in0.0 mm 0.00 in0.0 mm
03:06 AM 53.4°F11.9°C 47.7°F8.7°C 81% Calm Calm -- 30.03 in1016.9 mb 0.00 in0.0 mm 0.00 in0.0 mm 0.00 in0.0 mm
03:08 AM 53.4°F11.9°C 47.7°F8.7°C 81% Calm Calm -- 30.04 in1017.3 mb 0.00 in0.0 mm 0.00 in0.0 mm 0.00 in0.0 mm
03:10 AM 53.4°F11.9°C 47.7°F8.7°C 81% Calm Calm -- 30.04 in1017.3 mb 0.00 in0.0 mm 0.00 in0.0 mm 0.00 in0.0 mm
03:12 AM 53.4°F11.9°C 47.7°F8.7°C 81% Calm Calm -- 30.04 in1017.3 mb 0.00 in0.0 mm 0.00 in0.0 mm 0.00 in0.0 mm
03:14 AM 53.4°F11.9°C 47.7°F8.7°C 81% Calm Calm -- 30.04 in1017.3 mb 0.00 in0.0 mm 0.00 in0.0 mm 0.00 in0.0 mm
03:16 AM 53.6°F12.0°C 48.2°F9.0°C 82% Calm Calm -- 30.04 in1017.3 mb 0.00 in0.0 mm 0.00 in0.0 mm 0.00 in0.0 mm
03:18 AM 53.6°F12.0°C 48.2°F9.0°C 82% Calm Calm -- 30.04 in1017.3 mb 0.00 in0.0 mm 0.00 in0.0 mm 0.00 in0.0 mm
03:20 AM 53.8°F12.1°C 48.4°F9.1°C 82% Calm Calm -- 30.03 in1016.9 mb 0.00 in0.0 mm 0.00 in0.0 mm 0.00 in0.0 mm
03:22 AM 53.8°F12.1°C 48.4°F9.1°C 82% Calm Calm -- 30.04 in1017.3 mb 0.00 in0.0 mm 0.00 in0.0 mm 0.00 in0.0 mm
03:24 AM 54.0°F12.2°C 48.6°F9.2°C 82% Calm Calm -- 30.04 in1017.3 mb 0.00 in0.0 mm 0.00 in0.0 mm 0.00 in0.0 mm
03:26 AM 54.0°F12.2°C 48.6°F9.2°C 82% Calm Calm -- 30.03 in1016.9 mb 0.00 in0.0 mm 0.00 in0.0 mm 0.00 in0.0 mm
03:28 AM 54.0°F12.2°C 48.6°F9.2°C 82% Calm Calm -- 30.04 in1017.3 mb 0.00 in0.0 mm 0.00 in0.0 mm 0.00 in0.0 mm
03:30 AM 54.0°F12.2°C 48.6°F9.2°C 82% Calm Calm -- 30.03 in1016.9 mb 0.00 in0.0 mm 0.00 in0.0 mm 0.00 in0.0 mm
03:32 AM 54.1°F12.3°C 48.8°F9.3°C 82% Calm Calm -- 30.04 in1017.3 mb 0.00 in0.0 mm 0.00 in0.0 mm 0.00 in0.0 mm
03:34 AM 54.1°F12.3°C 48.8°F9.3°C 82% Calm Calm -- 30.05 in1017.6 mb 0.00 in0.0 mm 0.00 in0.0 mm 0.00 in0.0 mm
03:36 AM 54.1°F12.3°C 48.8°F9.3°C 82% Calm Calm -- 30.04 in1017.3 mb 0.00 in0.0 mm 0.00 in0.0 mm 0.00 in0.0 mm
03:38 AM 54.1°F12.3°C 48.8°F9.3°C 82% Calm Calm -- 30.04 in1017.3 mb 0.00 in0.0 mm 0.00 in0.0 mm 0.00 in0.0 mm
03:40 AM 54.1°F12.3°C 48.8°F9.3°C 82% Calm Calm -- 30.03 in1016.9 mb 0.00 in0.0 mm 0.00 in0.0 mm 0.00 in0.0 mm
03:42 AM 54.1°F12.3°C 48.8°F9.3°C 82% Calm Calm -- 30.04 in1017.3 mb 0.00 in0.0 mm 0.00 in0.0 mm 0.00 in0.0 mm
03:44 AM 54.0°F12.2°C 48.3°F9.1°C 81% Calm Calm -- 30.03 in1016.9 mb 0.00 in0.0 mm 0.00 in0.0 mm 0.00 in0.0 mm
03:46 AM 54.0°F12.2°C 48.3°F9.1°C 81% Calm Calm -- 30.03 in1016.9 mb 0.00 in0.0 mm 0.00 in0.0 mm 0.00 in0.0 mm
03:48 AM 54.0°F12.2°C 48.3°F9.1°C 81% Calm Calm -- 30.03 in1016.9 mb 0.00 in0.0 mm 0.00 in0.0 mm 0.00 in0.0 mm
03:50 AM 54.0°F12.2°C 48.3°F9.1°C 81% Calm Calm -- 30.03 in1016.9 mb 0.00 in0.0 mm 0.00 in0.0 mm 0.00 in0.0 mm
03:52 AM 54.0°F12.2°C 48.3°F9.1°C 81% Calm Calm -- 30.03 in1016.9 mb 0.00 in0.0 mm 0.00 in0.0 mm 0.00 in0.0 mm
03:55 AM 54.1°F12.3°C 48.4°F9.1°C 81% Calm Calm -- 30.03 in1016.9 mb 0.00 in0.0 mm 0.00 in0.0 mm 0.00 in0.0 mm
03:57 AM 54.1°F12.3°C 48.4°F9.1°C 81% Calm Calm -- 30.03 in1016.9 mb 0.00 in0.0 mm 0.00 in0.0 mm 0.00 in0.0 mm
03:59 AM 54.1°F12.3°C 48.8°F9.3°C 82% Calm Calm -- 30.02 in1016.6 mb 0.00 in0.0 mm 0.00 in0.0 mm 0.00 in0.0 mm
04:01 AM 54.1°F12.3°C 48.8°F9.3°C 82% Calm Calm -- 30.03 in1016.9 mb 0.00 in0.0 mm 0.00 in0.0 mm 0.00 in0.0 mm
04:03 AM 54.3°F12.4°C 48.9°F9.4°C 82% Calm Calm -- 30.03 in1016.9 mb 0.00 in0.0 mm 0.00 in0.0 mm 0.00 in0.0 mm
04:05 AM 54.5°F12.5°C 48.5°F9.2°C 80% Calm Calm -- 30.03 in1016.9 mb 0.00 in0.0 mm 0.00 in0.0 mm 0.00 in0.0 mm
04:07 AM 54.5°F12.5°C 48.5°F9.2°C 80% Calm Calm -- 30.03 in1016.9 mb 0.00 in0.0 mm 0.00 in0.0 mm 0.00 in0.0 mm
04:09 AM 54.7°F12.6°C 48.6°F9.2°C 80% Calm Calm -- 30.03 in1016.9 mb 0.00 in0.0 mm 0.00 in0.0 mm 0.00 in0.0 mm
04:11 AM 54.7°F12.6°C 48.6°F9.2°C 80% Calm Calm -- 30.03 in1016.9 mb 0.00 in0.0 mm 0.00 in0.0 mm 0.00 in0.0 mm
04:13 AM 55.0°F12.8°C 49.3°F9.6°C 81% Calm Calm -- 30.02 in1016.6 mb 0.00 in0.0 mm 0.00 in0.0 mm 0.00 in0.0 mm
04:15 AM 55.4°F13.0°C 50.0°F10.0°C 82% Calm Calm -- 30.02 in1016.6 mb 0.00 in0.0 mm 0.00 in0.0 mm 0.00 in0.0 mm
04:17 AM 55.8°F13.2°C 50.7°F10.4°C 83% Calm Calm -- 30.02 in1016.6 mb 0.00 in0.0 mm 0.00 in0.0 mm 0.00 in0.0 mm
04:19 AM 56.1°F13.4°C 51.4°F10.8°C 84% Calm Calm -- 30.03 in1016.9 mb 0.00 in0.0 mm 0.00 in0.0 mm 0.00 in0.0 mm
04:21 AM 56.5°F13.6°C 52.0°F11.1°C 85% Calm Calm -- 30.02 in1016.6 mb 0.00 in0.0 mm 0.00 in0.0 mm 0.00 in0.0 mm
04:23 AM 56.8°F13.8°C 52.4°F11.3°C 85% Calm Calm 0.7 mph1.1 kmh 30.01 in1016.3 mb 0.00 in0.0 mm 0.00 in0.0 mm 0.00 in0.0 mm
04:25 AM 57.0°F13.9°C 52.9°F11.6°C 86% Calm Calm -- 30.02 in1016.6 mb 0.00 in0.0 mm 0.00 in0.0 mm 0.00 in0.0 mm
04:27 AM 57.0°F13.9°C 52.6°F11.4°C 85% Calm Calm -- 30.02 in1016.6 mb 0.00 in0.0 mm 0.00 in0.0 mm 0.00 in0.0 mm
04:29 AM 57.0°F13.9°C 52.6°F11.4°C 85% Calm Calm -- 30.02 in1016.6 mb 0.00 in0.0 mm 0.00 in0.0 mm 0.00 in0.0 mm
04:31 AM 57.0°F13.9°C 52.2°F11.2°C 84% Calm Calm -- 30.02 in1016.6 mb 0.00 in0.0 mm 0.00 in0.0 mm 0.00 in0.0 mm
04:33 AM 56.8°F13.8°C 51.7°F10.9°C 83% Calm Calm -- 30.02 in1016.6 mb 0.00 in0.0 mm 0.00 in0.0 mm 0.00 in0.0 mm
04:35 AM 56.8°F13.8°C 51.4°F10.8°C 82% Calm Calm -- 30.02 in1016.6 mb 0.00 in0.0 mm 0.00 in0.0 mm 0.00 in0.0 mm
04:37 AM 56.8°F13.8°C 51.4°F10.8°C 82% Calm Calm -- 30.03 in1016.9 mb 0.00 in0.0 mm 0.00 in0.0 mm 0.00 in0.0 mm
04:39 AM 56.7°F13.7°C 50.9°F10.5°C 81% Calm Calm -- 30.02 in1016.6 mb 0.00 in0.0 mm 0.00 in0.0 mm 0.00 in0.0 mm
04:41 AM 56.7°F13.7°C 50.9°F10.5°C 81% Calm Calm -- 30.02 in1016.6 mb 0.00 in0.0 mm 0.00 in0.0 mm 0.00 in0.0 mm
04:43 AM 56.7°F13.7°C 50.9°F10.5°C 81% Calm Calm -- 30.02 in1016.6 mb 0.00 in0.0 mm 0.00 in0.0 mm 0.00 in0.0 mm
04:45 AM 56.7°F13.7°C 50.9°F10.5°C 81% Calm Calm -- 30.01 in1016.3 mb 0.00 in0.0 mm 0.00 in0.0 mm 0.00 in0.0 mm
04:47 AM 56.7°F13.7°C 50.9°F10.5°C 81% Calm Calm -- 30.02 in1016.6 mb 0.00 in0.0 mm 0.00 in0.0 mm 0.00 in0.0 mm
04:49 AM 56.7°F13.7°C 50.9°F10.5°C 81% Calm Calm -- 30.01 in1016.3 mb 0.00 in0.0 mm 0.00 in0.0 mm 0.00 in0.0 mm
04:51 AM 56.7°F13.7°C 51.2°F10.7°C 82% Calm Calm -- 30.01 in1016.3 mb 0.00 in0.0 mm 0.00 in0.0 mm 0.00 in0.0 mm
04:53 AM 56.8°F13.8°C 51.4°F10.8°C 82% Calm Calm -- 30.01 in1016.3 mb 0.00 in0.0 mm 0.00 in0.0 mm 0.00 in0.0 mm
04:55 AM 56.8°F13.8°C 51.4°F10.8°C 82% Calm Calm -- 30.01 in1016.3 mb 0.00 in0.0 mm 0.00 in0.0 mm 0.00 in0.0 mm
04:57 AM 56.8°F13.8°C 51.4°F10.8°C 82% Calm Calm -- 30.02 in1016.6 mb 0.00 in0.0 mm 0.00 in0.0 mm 0.00 in0.0 mm
04:59 AM 56.8°F13.8°C 51.4°F10.8°C 82% Calm Calm -- 30.02 in1016.6 mb 0.00 in0.0 mm 0.00 in0.0 mm 0.00 in0.0 mm
05:01 AM 57.0°F13.9°C 51.6°F10.9°C 82% Calm Calm -- 30.02 in1016.6 mb 0.00 in0.0 mm 0.00 in0.0 mm 0.00 in0.0 mm
05:03 AM 57.0°F13.9°C 51.6°F10.9°C 82% Calm Calm -- 30.01 in1016.3 mb 0.00 in0.0 mm 0.00 in0.0 mm 0.00 in0.0 mm
05:05 AM 57.2°F14.0°C 52.1°F11.2°C 83% Calm Calm -- 30.01 in1016.3 mb 0.00 in0.0 mm 0.00 in0.0 mm 0.00 in0.0 mm
05:07 AM 57.4°F14.1°C 52.6°F11.4°C 84% Calm Calm -- 30.02 in1016.6 mb 0.00 in0.0 mm 0.00 in0.0 mm 0.00 in0.0 mm
05:09 AM 57.6°F14.2°C 52.8°F11.6°C 84% Calm Calm -- 30.02 in1016.6 mb 0.00 in0.0 mm 0.00 in0.0 mm 0.00 in0.0 mm
05:11 AM 57.7°F14.3°C 53.3°F11.8°C 85% Calm Calm -- 30.02 in1016.6 mb 0.00 in0.0 mm 0.00 in0.0 mm 0.00 in0.0 mm
05:13 AM 57.9°F14.4°C 53.4°F11.9°C 85% Calm Calm -- 30.02 in1016.6 mb 0.00 in0.0 mm 0.00 in0.0 mm 0.00 in0.0 mm
05:15 AM 58.1°F14.5°C 53.6°F12.0°C 85% Calm Calm -- 30.01 in1016.3 mb 0.00 in0.0 mm 0.00 in0.0 mm 0.00 in0.0 mm
05:17 AM 58.3°F14.6°C 53.8°F12.1°C 85% Calm Calm -- 30.01 in1016.3 mb 0.00 in0.0 mm 0.00 in0.0 mm 0.00 in0.0 mm
05:19 AM 58.5°F14.7°C 54.0°F12.2°C 85% Calm Calm -- 30.02 in1016.6 mb 0.00 in0.0 mm 0.00 in0.0 mm 0.00 in0.0 mm
05:21 AM 58.6°F14.8°C 54.1°F12.3°C 85% Calm Calm -- 30.01 in1016.3 mb 0.00 in0.0 mm 0.00 in0.0 mm 0.00 in0.0 mm
05:23 AM 58.6°F14.8°C 54.1°F12.3°C 85% Calm Calm -- 30.01 in1016.3 mb 0.00 in0.0 mm 0.00 in0.0 mm 0.00 in0.0 mm
05:25 AM 58.8°F14.9°C 54.0°F12.2°C 84% Calm Calm -- 30.01 in1016.3 mb 0.00 in0.0 mm 0.00 in0.0 mm 0.00 in0.0 mm
05:27 AM 58.8°F14.9°C 54.0°F12.2°C 84% Calm Calm -- 30.01 in1016.3 mb 0.00 in0.0 mm 0.00 in0.0 mm 0.00 in0.0 mm
05:29 AM 59.0°F15.0°C 53.8°F12.1°C 83% Calm Calm -- 30.01 in1016.3 mb 0.00 in0.0 mm 0.00 in0.0 mm 0.00 in0.0 mm
05:31 AM 59.0°F15.0°C 53.8°F12.1°C 83% Calm Calm -- 30.01 in1016.3 mb 0.00 in0.0 mm 0.00 in0.0 mm 0.00 in0.0 mm
05:33 AM 59.0°F15.0°C 53.8°F12.1°C 83% Calm Calm -- 30.01 in1016.3 mb 0.00 in0.0 mm 0.00 in0.0 mm 0.00 in0.0 mm
05:35 AM 59.2°F15.1°C 54.0°F12.2°C 83% Calm Calm -- 30.01 in1016.3 mb 0.00 in0.0 mm 0.00 in0.0 mm 0.00 in0.0 mm
05:37 AM 59.4°F15.2°C 54.2°F12.3°C 83% Calm Calm -- 30.01 in1016.3 mb 0.00 in0.0 mm 0.00 in0.0 mm 0.00 in0.0 mm
05:39 AM 59.4°F15.2°C 54.2°F12.3°C 83% Calm Calm -- 30.00 in1015.9 mb 0.00 in0.0 mm 0.00 in0.0 mm 0.00 in0.0 mm
05:41 AM 59.4°F15.2°C 54.2°F12.3°C 83% Calm Calm -- 30.01 in1016.3 mb 0.00 in0.0 mm 0.00 in0.0 mm 0.00 in0.0 mm
05:43 AM 59.4°F15.2°C 54.2°F12.3°C 83% Calm Calm -- 30.01 in1016.3 mb 0.00 in0.0 mm 0.00 in0.0 mm 0.00 in0.0 mm
05:45 AM 59.4°F15.2°C 54.2°F12.3°C 83% Calm Calm -- 30.01 in1016.3 mb 0.00 in0.0 mm 0.00 in0.0 mm 0.00 in0.0 mm
05:47 AM 59.4°F15.2°C 54.2°F12.3°C 83% Calm Calm -- 30.01 in1016.3 mb 0.00 in0.0 mm 0.00 in0.0 mm 0.00 in0.0 mm
05:49 AM 59.4°F15.2°C 54.2°F12.3°C 83% Calm Calm -- 30.01 in1016.3 mb 0.00 in0.0 mm 0.00 in0.0 mm 0.00 in0.0 mm
05:51 AM 59.4°F15.2°C 54.2°F12.3°C 83% Calm Calm -- 30.01 in1016.3 mb 0.00 in0.0 mm 0.00 in0.0 mm 0.00 in0.0 mm
05:53 AM 59.4°F15.2°C 54.5°F12.5°C 84% Calm Calm -- 30.00 in1015.9 mb 0.00 in0.0 mm 0.00 in0.0 mm 0.00 in0.0 mm
05:55 AM 59.4°F15.2°C 54.5°F12.5°C 84% Calm Calm -- 30.01 in1016.3 mb 0.00 in0.0 mm 0.00 in0.0 mm 0.00 in0.0 mm
05:57 AM 59.4°F15.2°C 54.5°F12.5°C 84% Calm Calm -- 30.00 in1015.9 mb 0.00 in0.0 mm 0.00 in0.0 mm 0.00 in0.0 mm
05:59 AM 59.4°F15.2°C 54.5°F12.5°C 84% Calm Calm -- 30.01 in1016.3 mb 0.00 in0.0 mm 0.00 in0.0 mm 0.00 in0.0 mm
06:01 AM 59.4°F15.2°C 54.5°F12.5°C 84% Calm Calm -- 30.01 in1016.3 mb 0.00 in0.0 mm 0.00 in0.0 mm 0.00 in0.0 mm
06:03 AM 59.2°F15.1°C 54.0°F12.2°C 83% Calm Calm -- 30.01 in1016.3 mb 0.00 in0.0 mm 0.00 in0.0 mm 0.00 in0.0 mm
06:05 AM 59.2°F15.1°C 54.0°F12.2°C 83% Calm Calm -- 30.01 in1016.3 mb 0.00 in0.0 mm 0.00 in0.0 mm 0.00 in0.0 mm
06:07 AM 59.2°F15.1°C 54.0°F12.2°C 83% Calm Calm -- 30.01 in1016.3 mb 0.00 in0.0 mm 0.00 in0.0 mm 0.00 in0.0 mm
06:09 AM 59.2°F15.1°C 54.0°F12.2°C 83% Calm Calm -- 30.01 in1016.3 mb 0.00 in0.0 mm 0.00 in0.0 mm 0.00 in0.0 mm
06:11 AM 59.2°F15.1°C 54.0°F12.2°C 83% Calm Calm -- 30.01 in1016.3 mb 0.00 in0.0 mm 0.00 in0.0 mm 0.00 in0.0 mm
06:13 AM 59.2°F15.1°C 54.0°F12.2°C 83% Calm Calm -- 30.00 in1015.9 mb 0.00 in0.0 mm 0.00 in0.0 mm 0.00 in0.0 mm
06:15 AM 59.0°F15.0°C 53.8°F12.1°C 83% Calm Calm -- 30.00 in1015.9 mb 0.00 in0.0 mm 0.00 in0.0 mm 0.00 in0.0 mm
06:17 AM 59.0°F15.0°C 53.8°F12.1°C 83% Calm Calm -- 30.00 in1015.9 mb 0.00 in0.0 mm 0.00 in0.0 mm 0.00 in0.0 mm
06:19 AM 59.0°F15.0°C 53.8°F12.1°C 83% Calm Calm -- 30.00 in1015.9 mb 0.00 in0.0 mm 0.00 in0.0 mm 0.00 in0.0 mm
06:21 AM 59.0°F15.0°C 53.8°F12.1°C 83% Calm Calm -- 30.00 in1015.9 mb 0.00 in0.0 mm 0.00 in0.0 mm 0.00 in0.0 mm
06:23 AM 59.0°F15.0°C 53.8°F12.1°C 83% Calm Calm -- 30.01 in1016.3 mb 0.00 in0.0 mm 0.00 in0.0 mm 0.00 in0.0 mm
06:25 AM 59.0°F15.0°C 54.2°F12.3°C 84% Calm Calm -- 30.01 in1016.3 mb 0.00 in0.0 mm 0.00 in0.0 mm 0.00 in0.0 mm
06:27 AM 59.0°F15.0°C 54.2°F12.3°C 84% Calm Calm -- 30.00 in1015.9 mb 0.00 in0.0 mm 0.00 in0.0 mm 0.00 in0.0 mm
06:29 AM 59.0°F15.0°C 54.2°F12.3°C 84% Calm Calm -- 30.01 in1016.3 mb 0.00 in0.0 mm 0.00 in0.0 mm 0.00 in0.0 mm
06:31 AM 59.0°F15.0°C 54.2°F12.3°C 84% Calm Calm -- 30.00 in1015.9 mb 0.00 in0.0 mm 0.00 in0.0 mm 0.00 in0.0 mm
06:33 AM 59.0°F15.0°C 54.2°F12.3°C 84% Calm Calm -- 30.00 in1015.9 mb 0.00 in0.0 mm 0.00 in0.0 mm 0.00 in0.0 mm
06:35 AM 59.0°F15.0°C 54.5°F12.5°C 85% Calm Calm -- 30.00 in1015.9 mb 0.00 in0.0 mm 0.00 in0.0 mm 0.00 in0.0 mm
06:37 AM 59.0°F15.0°C 54.5°F12.5°C 85% Calm Calm -- 30.00 in1015.9 mb 0.00 in0.0 mm 0.00 in0.0 mm 0.00 in0.0 mm
06:39 AM 59.0°F15.0°C 54.5°F12.5°C 85% Calm Calm -- 30.00 in1015.9 mb 0.00 in0.0 mm 0.00 in0.0 mm 0.00 in0.0 mm
06:41 AM 59.2°F15.1°C 55.0°F12.8°C 86% Calm Calm -- 30.00 in1015.9 mb 0.00 in0.0 mm 0.00 in0.0 mm 0.00 in0.0 mm
06:43 AM 59.2°F15.1°C 55.0°F12.8°C 86% Calm Calm -- 30.01 in1016.3 mb 0.00 in0.0 mm 0.00 in0.0 mm 0.00 in0.0 mm
06:45 AM 59.4°F15.2°C 55.2°F12.9°C 86% Calm Calm -- 30.00 in1015.9 mb 0.00 in0.0 mm 0.00 in0.0 mm 0.00 in0.0 mm
06:47 AM 59.4°F15.2°C 55.2°F12.9°C 86% Calm Calm -- 29.99 in1015.6 mb 0.00 in0.0 mm 0.00 in0.0 mm 0.00 in0.0 mm
06:49 AM 59.5°F15.3°C 55.7°F13.2°C 87% Calm Calm -- 30.00 in1015.9 mb 0.00 in0.0 mm 0.00 in0.0 mm 0.00 in0.0 mm
06:51 AM 59.5°F15.3°C 55.7°F13.2°C 87% Calm Calm -- 30.00 in1015.9 mb 0.00 in0.0 mm 0.00 in0.0 mm 0.00 in0.0 mm
06:53 AM 59.9°F15.5°C 56.3°F13.5°C 88% Calm Calm -- 30.01 in1016.3 mb 0.00 in0.0 mm 0.00 in0.0 mm 0.00 in0.0 mm
06:55 AM 60.3°F15.7°C 56.7°F13.7°C 88% Calm Calm -- 30.01 in1016.3 mb 0.00 in0.0 mm 0.00 in0.0 mm 0.00 in0.0 mm
06:57 AM 60.4°F15.8°C 57.2°F14.0°C 89% Calm Calm -- 30.00 in1015.9 mb 0.00 in0.0 mm 0.00 in0.0 mm 0.00 in0.0 mm
06:59 AM 61.0°F16.1°C 57.7°F14.3°C 89% Calm Calm -- 30.00 in1015.9 mb 0.00 in0.0 mm 0.00 in0.0 mm 0.00 in0.0 mm
07:01 AM 61.2°F16.2°C 57.9°F14.4°C 89% Calm Calm -- 30.00 in1015.9 mb 0.00 in0.0 mm 0.00 in0.0 mm 0.00 in0.0 mm
07:04 AM 61.2°F16.2°C 57.9°F14.4°C 89% Calm Calm -- 30.00 in1015.9 mb 0.00 in0.0 mm 0.00 in0.0 mm 0.00 in0.0 mm
07:06 AM 62.1°F16.7°C 58.1°F14.5°C 87% Calm Calm -- 30.01 in1016.3 mb 0.00 in0.0 mm 0.00 in0.0 mm 0.00 in0.0 mm
07:08 AM 62.4°F16.9°C 58.2°F14.6°C 86% Calm Calm -- 30.01 in1016.3 mb 0.00 in0.0 mm 0.00 in0.0 mm 0.00 in0.0 mm
07:10 AM 63.0°F17.2°C 58.4°F14.7°C 85% Calm Calm -- 30.00 in1015.9 mb 0.00 in0.0 mm 0.00 in0.0 mm 0.00 in0.0 mm
07:12 AM 63.1°F17.3°C 58.6°F14.8°C 85% Calm Calm -- 30.00 in1015.9 mb 0.00 in0.0 mm 0.00 in0.0 mm 0.00 in0.0 mm
07:14 AM 63.9°F17.7°C 57.9°F14.4°C 81% Calm Calm -- 30.00 in1015.9 mb 0.00 in0.0 mm 0.00 in0.0 mm 0.00 in0.0 mm
07:16 AM 64.2°F17.9°C 57.9°F14.4°C 80% Calm Calm -- 30.01 in1016.3 mb 0.00 in0.0 mm 0.00 in0.0 mm 0.00 in0.0 mm
07:18 AM 64.8°F18.2°C 58.1°F14.5°C 79% Calm Calm -- 30.01 in1016.3 mb 0.00 in0.0 mm 0.00 in0.0 mm 0.00 in0.0 mm
07:20 AM 65.1°F18.4°C 57.7°F14.3°C 77% Calm Calm -- 30.00 in1015.9 mb 0.00 in0.0 mm 0.00 in0.0 mm 0.00 in0.0 mm
07:22 AM 65.3°F18.5°C 57.5°F14.2°C 76% Calm Calm -- 30.00 in1015.9 mb 0.00 in0.0 mm 0.00 in0.0 mm 0.00 in0.0 mm
07:24 AM 65.5°F18.6°C 57.7°F14.3°C 76% Calm Calm -- 30.01 in1016.3 mb 0.00 in0.0 mm 0.00 in0.0 mm 0.00 in0.0 mm
07:26 AM 65.5°F18.6°C 57.3°F14.1°C 75% Calm Calm -- 30.01 in1016.3 mb 0.00 in0.0 mm 0.00 in0.0 mm 0.00 in0.0 mm
07:28 AM 65.3°F18.5°C 56.8°F13.8°C 74% Calm Calm -- 30.00 in1015.9 mb 0.00 in0.0 mm 0.00 in0.0 mm 0.00 in0.0 mm
07:30 AM 65.1°F18.4°C 56.6°F13.7°C 74% Calm Calm -- 30.00 in1015.9 mb 0.00 in0.0 mm 0.00 in0.0 mm 0.00 in0.0 mm
07:32 AM 64.9°F18.3°C 56.5°F13.6°C 74% Calm Calm -- 30.00 in1015.9 mb 0.00 in0.0 mm 0.00 in0.0 mm 0.00 in0.0 mm
07:34 AM 64.9°F18.3°C 56.8°F13.8°C 75% Calm Calm -- 30.00 in1015.9 mb 0.00 in0.0 mm 0.00 in0.0 mm 0.00 in0.0 mm
07:36 AM 64.8°F18.2°C 56.7°F13.7°C 75% Calm Calm -- 30.00 in1015.9 mb 0.00 in0.0 mm 0.00 in0.0 mm 0.00 in0.0 mm
07:38 AM 64.8°F18.2°C 56.7°F13.7°C 75% Calm Calm -- 30.00 in1015.9 mb 0.00 in0.0 mm 0.00 in0.0 mm 0.00 in0.0 mm
07:40 AM 64.8°F18.2°C 56.7°F13.7°C 75% Calm Calm -- 29.99 in1015.6 mb 0.00 in0.0 mm 0.00 in0.0 mm 0.00 in0.0 mm
07:42 AM 64.8°F18.2°C 56.7°F13.7°C 75% Calm Calm -- 29.99 in1015.6 mb 0.00 in0.0 mm 0.00 in0.0 mm 0.00 in0.0 mm
07:44 AM 64.8°F18.2°C 56.7°F13.7°C 75% Calm Calm -- 30.00 in1015.9 mb 0.00 in0.0 mm 0.00 in0.0 mm 0.00 in0.0 mm
07:46 AM 64.8°F18.2°C 56.7°F13.7°C 75% Calm Calm -- 29.99 in1015.6 mb 0.00 in0.0 mm 0.00 in0.0 mm 0.00 in0.0 mm
07:48 AM 64.8°F18.2°C 56.3°F13.5°C 74% Calm Calm -- 30.00 in1015.9 mb 0.00 in0.0 mm 0.00 in0.0 mm 0.00 in0.0 mm
07:50 AM 64.9°F18.3°C 56.5°F13.6°C 74% Calm Calm -- 30.00 in1015.9 mb 0.00 in0.0 mm 0.00 in0.0 mm 0.00 in0.0 mm
07:52 AM 64.9°F18.3°C 56.5°F13.6°C 74% Calm Calm -- 30.01 in1016.3 mb 0.00 in0.0 mm 0.00 in0.0 mm 0.00 in0.0 mm
07:54 AM 65.1°F18.4°C 56.6°F13.7°C 74% Calm Calm -- 30.00 in1015.9 mb 0.00 in0.0 mm 0.00 in0.0 mm 0.00 in0.0 mm
07:56 AM 65.3°F18.5°C 56.8°F13.8°C 74% Calm Calm -- 30.00 in1015.9 mb 0.00 in0.0 mm 0.00 in0.0 mm 0.00 in0.0 mm
07:58 AM 65.3°F18.5°C 56.8°F13.8°C 74% Calm Calm -- 30.00 in1015.9 mb 0.00 in0.0 mm 0.00 in0.0 mm 0.00 in0.0 mm
08:00 AM 65.8°F18.8°C 57.7°F14.3°C 75% Calm Calm -- 30.00 in1015.9 mb 0.00 in0.0 mm 0.00 in0.0 mm 0.00 in0.0 mm
08:02 AM 66.2°F19.0°C 58.0°F14.4°C 75% Calm Calm -- 30.00 in1015.9 mb 0.00 in0.0 mm 0.00 in0.0 mm 0.00 in0.0 mm
08:04 AM 66.7°F19.3°C 58.2°F14.6°C 74% Calm Calm -- 30.00 in1015.9 mb 0.00 in0.0 mm 0.00 in0.0 mm 0.00 in0.0 mm
08:06 AM 67.1°F19.5°C 58.2°F14.6°C 73% Calm Calm -- 30.00 in1015.9 mb 0.00 in0.0 mm 0.00 in0.0 mm 0.00 in0.0 mm
08:08 AM 67.6°F19.8°C 58.3°F14.6°C 72% Calm Calm -- 29.99 in1015.6 mb 0.00 in0.0 mm 0.00 in0.0 mm 0.00 in0.0 mm
08:10 AM 67.8°F19.9°C 58.1°F14.5°C 71% Calm Calm -- 30.00 in1015.9 mb 0.00 in0.0 mm 0.00 in0.0 mm 0.00 in0.0 mm
08:12 AM 68.5°F20.3°C 58.4°F14.7°C 70% Calm Calm -- 30.00 in1015.9 mb 0.00 in0.0 mm 0.00 in0.0 mm 0.00 in0.0 mm
08:14 AM 68.9°F20.5°C 58.7°F14.8°C 70% Calm Calm -- 29.99 in1015.6 mb 0.00 in0.0 mm 0.00 in0.0 mm 0.00 in0.0 mm
08:16 AM 69.6°F20.9°C 59.4°F15.2°C 70% Calm Calm -- 30.00 in1015.9 mb 0.00 in0.0 mm 0.00 in0.0 mm 0.00 in0.0 mm
08:18 AM 70.0°F21.1°C 59.3°F15.2°C 69% Calm Calm -- 29.99 in1015.6 mb 0.00 in0.0 mm 0.00 in0.0 mm 0.00 in0.0 mm
08:20 AM 70.5°F21.4°C 59.4°F15.2°C 68% Calm Calm -- 29.99 in1015.6 mb 0.00 in0.0 mm 0.00 in0.0 mm 0.00 in0.0 mm
08:22 AM 70.7°F21.5°C 58.8°F14.9°C 66% Calm Calm -- 29.99 in1015.6 mb 0.00 in0.0 mm 0.00 in0.0 mm 0.00 in0.0 mm
08:24 AM 71.1°F21.7°C 59.1°F15.1°C 66% Calm Calm -- 29.99 in1015.6 mb 0.00 in0.0 mm 0.00 in0.0 mm 0.00 in0.0 mm
08:26 AM 71.2°F21.8°C 59.3°F15.2°C 66% Calm Calm -- 29.99 in1015.6 mb 0.00 in0.0 mm 0.00 in0.0 mm 0.00 in0.0 mm
08:28 AM 71.2°F21.8°C 58.9°F14.9°C 65% Calm Calm -- 29.99 in1015.6 mb 0.00 in0.0 mm 0.00 in0.0 mm 0.00 in0.0 mm
08:30 AM 71.2°F21.8°C 58.9°F14.9°C 65% Calm Calm -- 29.99 in1015.6 mb 0.00 in0.0 mm 0.00 in0.0 mm 0.00 in0.0 mm
08:32 AM 71.1°F21.7°C 59.1°F15.1°C 66% Calm Calm -- 29.99 in1015.6 mb 0.00 in0.0 mm 0.00 in0.0 mm 0.00 in0.0 mm
08:34 AM 71.2°F21.8°C 59.3°F15.2°C 66% Calm Calm -- 30.00 in1015.9 mb 0.00 in0.0 mm 0.00 in0.0 mm 0.00 in0.0 mm
08:36 AM 71.6°F22.0°C 59.6°F15.3°C 66% Calm Calm -- 29.99 in1015.6 mb 0.00 in0.0 mm 0.00 in0.0 mm 0.00 in0.0 mm
08:38 AM 71.6°F22.0°C 59.6°F15.3°C 66% Calm Calm -- 29.99 in1015.6 mb 0.00 in0.0 mm 0.00 in0.0 mm 0.00 in0.0 mm
08:40 AM 71.6°F22.0°C 59.2°F15.1°C 65% Calm Calm -- 29.99 in1015.6 mb 0.00 in0.0 mm 0.00 in0.0 mm 0.00 in0.0 mm
08:42 AM 71.4°F21.9°C 59.0°F15.0°C 65% Calm Calm -- 30.00 in1015.9 mb 0.00 in0.0 mm 0.00 in0.0 mm 0.00 in0.0 mm
08:44 AM 71.1°F21.7°C 58.7°F14.8°C 65% Calm Calm -- 29.99 in1015.6 mb 0.00 in0.0 mm 0.00 in0.0 mm 0.00 in0.0 mm
08:46 AM 70.9°F21.6°C 58.9°F14.9°C 66% Calm Calm -- 29.99 in1015.6 mb 0.00 in0.0 mm 0.00 in0.0 mm 0.00 in0.0 mm
08:48 AM 70.5°F21.4°C 58.6°F14.8°C 66% Calm Calm -- 30.00 in1015.9 mb 0.00 in0.0 mm 0.00 in0.0 mm 0.00 in0.0 mm
08:50 AM 70.3°F21.3°C 58.9°F14.9°C 67% Calm Calm -- 29.99 in1015.6 mb 0.00 in0.0 mm 0.00 in0.0 mm 0.00 in0.0 mm
08:52 AM 70.0°F21.1°C 58.5°F14.7°C 67% Calm Calm -- 30.00 in1015.9 mb 0.00 in0.0 mm 0.00 in0.0 mm 0.00 in0.0 mm
08:54 AM 69.6°F20.9°C 58.6°F14.8°C 68% Calm Calm -- 29.99 in1015.6 mb 0.00 in0.0 mm 0.00 in0.0 mm 0.00 in0.0 mm
08:56 AM 69.4°F20.8°C 58.8°F14.9°C 69% Calm Calm -- 29.98 in1015.2 mb 0.00 in0.0 mm 0.00 in0.0 mm 0.00 in0.0 mm
08:58 AM 69.3°F20.7°C 59.1°F15.1°C 70% Calm Calm -- 29.99 in1015.6 mb 0.00 in0.0 mm 0.00 in0.0 mm 0.00 in0.0 mm
09:00 AM 69.1°F20.6°C 58.9°F14.9°C 70% Calm Calm -- 29.99 in1015.6 mb 0.00 in0.0 mm 0.00 in0.0 mm 0.00 in0.0 mm
09:02 AM 69.1°F20.6°C 58.9°F14.9°C 70% Calm Calm -- 29.99 in1015.6 mb 0.00 in0.0 mm 0.00 in0.0 mm 0.00 in0.0 mm
09:04 AM 69.1°F20.6°C 58.9°F14.9°C 70% Calm Calm -- 29.99 in1015.6 mb 0.00 in0.0 mm 0.00 in0.0 mm 0.00 in0.0 mm
09:06 AM 68.9°F20.5°C 58.7°F14.8°C 70% Calm Calm -- 29.98 in1015.2 mb 0.00 in0.0 mm 0.00 in0.0 mm 0.00 in0.0 mm
09:08 AM 68.7°F20.4°C 58.5°F14.7°C 70% Calm Calm -- 29.99 in1015.6 mb 0.00 in0.0 mm 0.00 in0.0 mm 0.00 in0.0 mm
09:10 AM 68.7°F20.4°C 58.5°F14.7°C 70% Calm Calm -- 29.99 in1015.6 mb 0.00 in0.0 mm 0.00 in0.0 mm 0.00 in0.0 mm
09:12 AM 68.7°F20.4°C 58.5°F14.7°C 70% Calm Calm -- 29.99 in1015.6 mb 0.00 in0.0 mm 0.00 in0.0 mm 0.00 in0.0 mm
09:14 AM 68.5°F20.3°C 58.4°F14.7°C 70% Calm Calm -- 29.99 in1015.6 mb 0.00 in0.0 mm 0.00 in0.0 mm 0.00 in0.0 mm
09:16 AM 68.5°F20.3°C 58.4°F14.7°C 70% Calm Calm -- 29.99 in1015.6 mb 0.00 in0.0 mm 0.00 in0.0 mm 0.00 in0.0 mm
09:18 AM 68.5°F20.3°C 58.8°F14.9°C 71% Calm Calm -- 29.99 in1015.6 mb 0.00 in0.0 mm 0.00 in0.0 mm 0.00 in0.0 mm
09:20 AM 68.5°F20.3°C 58.8°F14.9°C 71% Calm Calm -- 29.99 in1015.6 mb 0.00 in0.0 mm 0.00 in0.0 mm 0.00 in0.0 mm
09:22 AM 68.5°F20.3°C 58.8°F14.9°C 71% Calm Calm -- 29.99 in1015.6 mb 0.00 in0.0 mm 0.00 in0.0 mm 0.00 in0.0 mm
09:24 AM 68.5°F20.3°C 58.8°F14.9°C 71% Calm Calm -- 29.99 in1015.6 mb 0.00 in0.0 mm 0.00 in0.0 mm 0.00 in0.0 mm
09:26 AM 68.5°F20.3°C 58.8°F14.9°C 71% Calm Calm -- 29.99 in1015.6 mb 0.00 in0.0 mm 0.00 in0.0 mm 0.00 in0.0 mm
09:28 AM 68.5°F20.3°C 58.8°F14.9°C 71% Calm Calm -- 29.99 in1015.6 mb 0.00 in0.0 mm 0.00 in0.0 mm 0.00 in0.0 mm
09:30 AM 68.4°F20.2°C 58.6°F14.8°C 71% Calm Calm -- 29.99 in1015.6 mb 0.00 in0.0 mm 0.00 in0.0 mm 0.00 in0.0 mm
09:32 AM 68.4°F20.2°C 58.6°F14.8°C 71% Calm Calm -- 29.98 in1015.2 mb 0.00 in0.0 mm 0.00 in0.0 mm 0.00 in0.0 mm
09:34 AM 68.4°F20.2°C 58.6°F14.8°C 71% Calm Calm -- 29.98 in1015.2 mb 0.00 in0.0 mm 0.00 in0.0 mm 0.00 in0.0 mm
09:36 AM 68.5°F20.3°C 58.8°F14.9°C 71% Calm Calm -- 29.98 in1015.2 mb 0.00 in0.0 mm 0.00 in0.0 mm 0.00 in0.0 mm
09:38 AM 68.5°F20.3°C 58.8°F14.9°C 71% Calm Calm -- 29.98 in1015.2 mb 0.00 in0.0 mm 0.00 in0.0 mm 0.00 in0.0 mm
09:40 AM 68.5°F20.3°C 58.8°F14.9°C 71% Calm Calm -- 29.99 in1015.6 mb 0.00 in0.0 mm 0.00 in0.0 mm 0.00 in0.0 mm
09:42 AM 68.5°F20.3°C 58.8°F14.9°C 71% Calm Calm -- 29.99 in1015.6 mb 0.00 in0.0 mm 0.00 in0.0 mm 0.00 in0.0 mm
09:44 AM 68.7°F20.4°C 58.9°F14.9°C 71% Calm Calm -- 29.98 in1015.2 mb 0.00 in0.0 mm 0.00 in0.0 mm 0.00 in0.0 mm
09:46 AM 68.9°F20.5°C 59.1°F15.1°C 71% Calm Calm -- 29.99 in1015.6 mb 0.00 in0.0 mm 0.00 in0.0 mm 0.00 in0.0 mm
09:48 AM 69.1°F20.6°C 59.3°F15.2°C 71% Calm Calm -- 29.98 in1015.2 mb 0.00 in0.0 mm 0.00 in0.0 mm 0.00 in0.0 mm
09:50 AM 69.4°F20.8°C 59.6°F15.3°C 71% Calm Calm -- 29.98 in1015.2 mb 0.00 in0.0 mm 0.00 in0.0 mm 0.00 in0.0 mm
09:52 AM 70.0°F21.1°C 60.1°F15.6°C 71% Calm Calm -- 29.98 in1015.2 mb 0.00 in0.0 mm 0.00 in0.0 mm 0.00 in0.0 mm
09:54 AM 70.5°F21.4°C 60.7°F15.9°C 71% Calm Calm -- 29.98 in1015.2 mb 0.00 in0.0 mm 0.00 in0.0 mm 0.00 in0.0 mm
09:56 AM 70.9°F21.6°C 60.6°F15.9°C 70% Calm Calm -- 29.98 in1015.2 mb 0.00 in0.0 mm 0.00 in0.0 mm 0.00 in0.0 mm
09:58 AM 70.9°F21.6°C 60.2°F15.7°C 69% Calm Calm -- 29.97 in1014.9 mb 0.00 in0.0 mm 0.00 in0.0 mm 0.00 in0.0 mm
10:00 AM 70.7°F21.5°C 59.6°F15.3°C 68% Calm Calm 0.7 mph1.1 kmh 29.98 in1015.2 mb 0.00 in0.0 mm 0.00 in0.0 mm 0.00 in0.0 mm
10:02 AM 70.3°F21.3°C 59.3°F15.2°C 68% Calm Calm -- 29.97 in1014.9 mb 0.00 in0.0 mm 0.00 in0.0 mm 0.00 in0.0 mm
10:04 AM 69.8°F21.0°C 59.2°F15.1°C 69% Calm Calm -- 29.97 in1014.9 mb 0.00 in0.0 mm 0.00 in0.0 mm 0.00 in0.0 mm
10:06 AM 69.6°F20.9°C 59.0°F15.0°C 69% Calm Calm 0.7 mph1.1 kmh 29.97 in1014.9 mb 0.00 in0.0 mm 0.00 in0.0 mm 0.00 in0.0 mm
10:08 AM 69.3°F20.7°C 59.1°F15.1°C 70% Calm Calm -- 29.97 in1014.9 mb 0.00 in0.0 mm 0.00 in0.0 mm 0.00 in0.0 mm
10:10 AM 69.3°F20.7°C 59.1°F15.1°C 70% Calm Calm -- 29.97 in1014.9 mb 0.00 in0.0 mm 0.00 in0.0 mm 0.00 in0.0 mm
10:12 AM 69.3°F20.7°C 59.1°F15.1°C 70% Calm Calm -- 29.97 in1014.9 mb 0.00 in0.0 mm 0.00 in0.0 mm 0.00 in0.0 mm
10:14 AM 69.3°F20.7°C 59.1°F15.1°C 70% Calm Calm -- 29.97 in1014.9 mb 0.00 in0.0 mm 0.00 in0.0 mm 0.00 in0.0 mm
10:16 AM 69.1°F20.6°C 58.9°F14.9°C 70% Calm Calm -- 29.97 in1014.9 mb 0.00 in0.0 mm 0.00 in0.0 mm 0.00 in0.0 mm
10:18 AM 69.1°F20.6°C 58.9°F14.9°C 70% Calm Calm 0.7 mph1.1 kmh 29.98 in1015.2 mb 0.00 in0.0 mm 0.00 in0.0 mm 0.00 in0.0 mm
10:20 AM 68.7°F20.4°C 58.5°F14.7°C 70% Calm Calm -- 29.97 in1014.9 mb 0.00 in0.0 mm 0.00 in0.0 mm 0.00 in0.0 mm
10:22 AM 68.2°F20.1°C 58.0°F14.4°C 70% Calm Calm 0.7 mph1.1 kmh 29.97 in1014.9 mb 0.00 in0.0 mm 0.00 in0.0 mm 0.00 in0.0 mm
10:24 AM 67.1°F19.5°C 57.4°F14.1°C 71% Calm Calm -- 29.97 in1014.9 mb 0.00 in0.0 mm 0.00 in0.0 mm 0.00 in0.0 mm
10:26 AM 66.6°F19.2°C 57.3°F14.1°C 72% Calm Calm -- 29.98 in1015.2 mb 0.00 in0.0 mm 0.00 in0.0 mm 0.00 in0.0 mm
10:28 AM 65.8°F18.8°C 57.7°F14.3°C 75% Calm Calm -- 29.97 in1014.9 mb 0.00 in0.0 mm 0.00 in0.0 mm 0.00 in0.0 mm
10:30 AM 65.3°F18.5°C 57.5°F14.2°C 76% Calm Calm -- 29.97 in1014.9 mb 0.00 in0.0 mm 0.00 in0.0 mm 0.00 in0.0 mm
10:32 AM 64.8°F18.2°C 58.1°F14.5°C 79% Calm Calm 0.7 mph1.1 kmh 29.97 in1014.9 mb 0.00 in0.0 mm 0.00 in0.0 mm 0.00 in0.0 mm
10:35 AM 64.6°F18.1°C 57.9°F14.4°C 79% Calm Calm 0.7 mph1.1 kmh 29.97 in1014.9 mb 0.01 in0.3 mm 0.24 in6.1 mm 0.01 in0.3 mm
10:37 AM 64.4°F18.0°C 58.1°F14.5°C 80% Calm Calm -- 29.97 in1014.9 mb 0.01 in0.3 mm 0.00 in0.0 mm 0.01 in0.3 mm
10:39 AM 64.2°F17.9°C 57.9°F14.4°C 80% Calm Calm -- 29.98 in1015.2 mb 0.01 in0.3 mm 0.00 in0.0 mm 0.01 in0.3 mm
10:41 AM 64.0°F17.8°C 58.1°F14.5°C 81% Calm Calm -- 29.98 in1015.2 mb 0.01 in0.3 mm 0.00 in0.0 mm 0.01 in0.3 mm
10:43 AM 63.9°F17.7°C 57.9°F14.4°C 81% Calm Calm -- 29.96 in1014.6 mb 0.01 in0.3 mm 0.00 in0.0 mm 0.01 in0.3 mm
10:45 AM 63.9°F17.7°C 57.9°F14.4°C 81% Calm Calm -- 29.96 in1014.6 mb 0.01 in0.3 mm 0.00 in0.0 mm 0.01 in0.3 mm
10:47 AM 63.9°F17.7°C 57.9°F14.4°C 81% Calm Calm -- 29.96 in1014.6 mb 0.02 in0.5 mm 0.35 in8.9 mm 0.02 in0.5 mm
10:49 AM 64.0°F17.8°C 58.1°F14.5°C 81% Calm Calm -- 29.96 in1014.6 mb 0.04 in1.0 mm 0.35 in8.9 mm 0.04 in1.0 mm
10:51 AM 64.0°F17.8°C 58.4°F14.7°C 82% Calm Calm -- 29.96 in1014.6 mb 0.04 in1.0 mm 0.00 in0.0 mm 0.04 in1.0 mm
10:53 AM 64.0°F17.8°C 58.4°F14.7°C 82% Calm Calm -- 29.96 in1014.6 mb 0.05 in1.3 mm 0.35 in8.9 mm 0.05 in1.3 mm
10:55 AM 64.0°F17.8°C 58.8°F14.9°C 83% Calm Calm -- 29.95 in1014.2 mb 0.05 in1.3 mm 0.00 in0.0 mm 0.05 in1.3 mm
10:57 AM 64.0°F17.8°C 58.8°F14.9°C 83% Calm Calm -- 29.95 in1014.2 mb 0.05 in1.3 mm 0.00 in0.0 mm 0.05 in1.3 mm
10:59 AM 64.2°F17.9°C 58.9°F14.9°C 83% Calm Calm -- 29.95 in1014.2 mb 0.05 in1.3 mm 0.00 in0.0 mm 0.05 in1.3 mm
11:01 AM 64.2°F17.9°C 58.9°F14.9°C 83% Calm Calm -- 29.95 in1014.2 mb 0.05 in1.3 mm 0.00 in0.0 mm 0.05 in1.3 mm
11:03 AM 64.2°F17.9°C 58.9°F14.9°C 83% Calm Calm -- 29.95 in1014.2 mb 0.05 in1.3 mm 0.00 in0.0 mm 0.05 in1.3 mm
11:05 AM 64.2°F17.9°C 58.9°F14.9°C 83% Calm Calm -- 29.95 in1014.2 mb 0.05 in1.3 mm 0.00 in0.0 mm 0.05 in1.3 mm
11:07 AM 64.2°F17.9°C 58.9°F14.9°C 83% Calm Calm -- 29.95 in1014.2 mb 0.05 in1.3 mm 0.00 in0.0 mm 0.05 in1.3 mm
11:09 AM 63.9°F17.7°C 58.9°F14.9°C 84% Calm Calm -- 29.95 in1014.2 mb 0.09 in2.3 mm 1.42 in36.1 mm 0.09 in2.3 mm
11:11 AM 63.9°F17.7°C 58.9°F14.9°C 84% Calm Calm -- 29.95 in1014.2 mb 0.09 in2.3 mm 0.00 in0.0 mm 0.09 in2.3 mm
11:13 AM 63.9°F17.7°C 58.9°F14.9°C 84% Calm Calm -- 29.94 in1013.9 mb 0.09 in2.3 mm 0.00 in0.0 mm 0.09 in2.3 mm
11:15 AM 63.9°F17.7°C 59.3°F15.2°C 85% Calm Calm -- 29.94 in1013.9 mb 0.09 in2.3 mm 0.00 in0.0 mm 0.09 in2.3 mm
11:17 AM 64.0°F17.8°C 59.4°F15.2°C 85% Calm Calm -- 29.94 in1013.9 mb 0.09 in2.3 mm 0.00 in0.0 mm 0.09 in2.3 mm
11:19 AM 64.0°F17.8°C 59.4°F15.2°C 85% Calm Calm -- 29.94 in1013.9 mb 0.09 in2.3 mm 0.00 in0.0 mm 0.09 in2.3 mm
11:21 AM 64.4°F18.0°C 60.1°F15.6°C 86% Calm Calm -- 29.93 in1013.5 mb 0.09 in2.3 mm 0.00 in0.0 mm 0.09 in2.3 mm
11:23 AM 64.6°F18.1°C 60.3°F15.7°C 86% Calm Calm -- 29.94 in1013.9 mb 0.09 in2.3 mm 0.00 in0.0 mm 0.09 in2.3 mm
11:25 AM 64.8°F18.2°C 60.8°F16.0°C 87% Calm Calm -- 29.94 in1013.9 mb 0.09 in2.3 mm 0.00 in0.0 mm 0.09 in2.3 mm
11:27 AM 64.9°F18.3°C 61.0°F16.1°C 87% Calm Calm -- 29.93 in1013.5 mb 0.09 in2.3 mm 0.00 in0.0 mm 0.09 in2.3 mm
11:29 AM 64.9°F18.3°C 61.0°F16.1°C 87% Calm Calm -- 29.94 in1013.9 mb 0.09 in2.3 mm 0.00 in0.0 mm 0.09 in2.3 mm
11:31 AM 65.3°F18.5°C 61.7°F16.5°C 88% Calm Calm 0.7 mph1.1 kmh 29.93 in1013.5 mb 0.09 in2.3 mm 0.00 in0.0 mm 0.09 in2.3 mm
11:33 AM 65.5°F18.6°C 62.2°F16.8°C 89% Calm Calm -- 29.94 in1013.9 mb 0.08 in2.0 mm 0.00 in0.0 mm 0.09 in2.3 mm
11:35 AM 65.7°F18.7°C 62.3°F16.8°C 89% Calm Calm 0.7 mph1.1 kmh 29.94 in1013.9 mb 0.08 in2.0 mm 0.00 in0.0 mm 0.09 in2.3 mm
11:37 AM 65.7°F18.7°C 62.0°F16.7°C 88% Calm Calm -- 29.94 in1013.9 mb 0.08 in2.0 mm 0.00 in0.0 mm 0.09 in2.3 mm
11:39 AM 65.7°F18.7°C 61.7°F16.5°C 87% Calm Calm -- 29.93 in1013.5 mb 0.08 in2.0 mm 0.00 in0.0 mm 0.09 in2.3 mm
11:41 AM 65.7°F18.7°C 61.7°F16.5°C 87% Calm Calm 0.7 mph1.1 kmh 29.93 in1013.5 mb 0.08 in2.0 mm 0.00 in0.0 mm 0.09 in2.3 mm
11:43 AM 65.5°F18.6°C 61.2°F16.2°C 86% Calm Calm -- 29.94 in1013.9 mb 0.08 in2.0 mm 0.00 in0.0 mm 0.09 in2.3 mm
11:45 AM 65.3°F18.5°C 60.7°F15.9°C 85% Calm Calm 0.7 mph1.1 kmh 29.94 in1013.9 mb 0.07 in1.8 mm 0.00 in0.0 mm 0.09 in2.3 mm
11:47 AM 65.3°F18.5°C 60.7°F15.9°C 85% Calm Calm 0.7 mph1.1 kmh 29.94 in1013.9 mb 0.06 in1.5 mm 0.00 in0.0 mm 0.09 in2.3 mm
11:49 AM 65.1°F18.4°C 60.2°F15.7°C 84% Calm Calm -- 29.93 in1013.5 mb 0.06 in1.5 mm 0.00 in0.0 mm 0.09 in2.3 mm
11:51 AM 64.9°F18.3°C 60.0°F15.6°C 84% Calm Calm -- 29.93 in1013.5 mb 0.05 in1.3 mm 0.00 in0.0 mm 0.09 in2.3 mm
11:53 AM 64.9°F18.3°C 60.0°F15.6°C 84% Calm Calm -- 29.93 in1013.5 mb 0.05 in1.3 mm 0.00 in0.0 mm 0.09 in2.3 mm
11:55 AM 64.9°F18.3°C 60.0°F15.6°C 84% Calm Calm -- 29.93 in1013.5 mb 0.05 in1.3 mm 0.00 in0.0 mm 0.09 in2.3 mm
11:57 AM 65.1°F18.4°C 60.2°F15.7°C 84% Calm Calm -- 29.94 in1013.9 mb 0.05 in1.3 mm 0.00 in0.0 mm 0.09 in2.3 mm
11:59 AM 65.3°F18.5°C 60.7°F15.9°C 85% Calm Calm -- 29.93 in1013.5 mb 0.05 in1.3 mm 0.00 in0.0 mm 0.09 in2.3 mm
12:01 PM 66.0°F18.9°C 62.0°F16.7°C 87% Calm Calm -- 29.93 in1013.5 mb 0.05 in1.3 mm 0.00 in0.0 mm 0.09 in2.3 mm
12:03 PM 66.4°F19.1°C 62.4°F16.9°C 87% Calm Calm -- 29.94 in1013.9 mb 0.05 in1.3 mm 0.00 in0.0 mm 0.09 in2.3 mm
12:05 PM 66.7°F19.3°C 62.4°F16.9°C 86% Calm Calm -- 29.93 in1013.5 mb 0.05 in1.3 mm 0.00 in0.0 mm 0.09 in2.3 mm
12:07 PM 67.1°F19.5°C 62.8°F17.1°C 86% Calm Calm -- 29.93 in1013.5 mb 0.01 in0.3 mm 0.00 in0.0 mm 0.09 in2.3 mm
12:09 PM 67.5°F19.7°C 62.8°F17.1°C 85% Calm Calm -- 29.93 in1013.5 mb 0.00 in0.0 mm 0.00 in0.0 mm 0.09 in2.3 mm
12:11 PM 67.6°F19.8°C 62.6°F17.0°C 84% Calm Calm -- 29.92 in1013.2 mb 0.00 in0.0 mm 0.00 in0.0 mm 0.09 in2.3 mm
12:13 PM 67.8°F19.9°C 62.5°F16.9°C 83% Calm Calm -- 29.92 in1013.2 mb 0.00 in0.0 mm 0.00 in0.0 mm 0.09 in2.3 mm
12:15 PM 68.0°F20.0°C 62.3°F16.8°C 82% Calm Calm -- 29.92 in1013.2 mb 0.00 in0.0 mm 0.00 in0.0 mm 0.09 in2.3 mm
12:17 PM 68.2°F20.1°C 62.5°F16.9°C 82% Calm Calm -- 29.92 in1013.2 mb 0.00 in0.0 mm 0.00 in0.0 mm 0.09 in2.3 mm
12:19 PM 68.5°F20.3°C 62.8°F17.1°C 82% Calm Calm -- 29.91 in1012.9 mb 0.00 in0.0 mm 0.00 in0.0 mm 0.09 in2.3 mm
12:21 PM 68.9°F20.5°C 63.2°F17.3°C 82% Calm Calm -- 29.91 in1012.9 mb 0.00 in0.0 mm 0.00 in0.0 mm 0.09 in2.3 mm
12:23 PM 69.4°F20.8°C 63.7°F17.6°C 82% Calm Calm -- 29.92 in1013.2 mb 0.00 in0.0 mm 0.00 in0.0 mm 0.09 in2.3 mm
12:25 PM 69.8°F21.0°C 63.7°F17.6°C 81% Calm Calm -- 29.92 in1013.2 mb 0.00 in0.0 mm 0.00 in0.0 mm 0.09 in2.3 mm
12:27 PM 69.8°F21.0°C 63.3°F17.4°C 80% Calm Calm -- 29.92 in1013.2 mb 0.00 in0.0 mm 0.00 in0.0 mm 0.09 in2.3 mm
12:29 PM 69.6°F20.9°C 62.1°F16.7°C 77% Calm Calm -- 29.91 in1012.9 mb 0.00 in0.0 mm 0.00 in0.0 mm 0.09 in2.3 mm
12:31 PM 69.4°F20.8°C 61.9°F16.6°C 77% Calm Calm -- 29.92 in1013.2 mb 0.00 in0.0 mm 0.00 in0.0 mm 0.09 in2.3 mm
12:33 PM 69.3°F20.7°C 61.7°F16.5°C 77% Calm Calm -- 29.91 in1012.9 mb 0.00 in0.0 mm 0.00 in0.0 mm 0.09 in2.3 mm
12:35 PM 69.1°F20.6°C 61.6°F16.4°C 77% Calm Calm -- 29.92 in1013.2 mb 0.00 in0.0 mm 0.00 in0.0 mm 0.09 in2.3 mm
12:37 PM 68.9°F20.5°C 61.4°F16.3°C 77% Calm Calm -- 29.91 in1012.9 mb 0.00 in0.0 mm 0.00 in0.0 mm 0.09 in2.3 mm
12:39 PM 68.9°F20.5°C 61.4°F16.3°C 77% Calm Calm -- 29.91 in1012.9 mb 0.00 in0.0 mm 0.00 in0.0 mm 0.09 in2.3 mm
12:41 PM 68.9°F20.5°C 61.4°F16.3°C 77% Calm Calm -- 29.91 in1012.9 mb 0.00 in0.0 mm 0.00 in0.0 mm 0.09 in2.3 mm
12:43 PM 68.9°F20.5°C 61.8°F16.6°C 78% Calm Calm -- 29.91 in1012.9 mb 0.00 in0.0 mm 0.00 in0.0 mm 0.09 in2.3 mm
12:45 PM 68.7°F20.4°C 61.6°F16.4°C 78% Calm Calm -- 29.91 in1012.9 mb 0.00 in0.0 mm 0.00 in0.0 mm 0.09 in2.3 mm
12:47 PM 68.7°F20.4°C 61.6°F16.4°C 78% Calm Calm -- 29.90 in1012.5 mb 0.00 in0.0 mm 0.00 in0.0 mm 0.09 in2.3 mm
12:49 PM 68.7°F20.4°C 61.6°F16.4°C 78% Calm Calm -- 29.90 in1012.5 mb 0.00 in0.0 mm 0.00 in0.0 mm 0.09 in2.3 mm
12:51 PM 68.7°F20.4°C 61.6°F16.4°C 78% Calm Calm -- 29.91 in1012.9 mb 0.00 in0.0 mm 0.00 in0.0 mm 0.09 in2.3 mm
12:53 PM 68.7°F20.4°C 61.6°F16.4°C 78% Calm Calm -- 29.90 in1012.5 mb 0.00 in0.0 mm 0.00 in0.0 mm 0.09 in2.3 mm
12:55 PM 68.7°F20.4°C 61.6°F16.4°C 78% Calm Calm -- 29.90 in1012.5 mb 0.00 in0.0 mm 0.00 in0.0 mm 0.09 in2.3 mm
12:57 PM 68.9°F20.5°C 61.8°F16.6°C 78% Calm Calm -- 29.91 in1012.9 mb 0.00 in0.0 mm 0.00 in0.0 mm 0.09 in2.3 mm
12:59 PM 69.1°F20.6°C 61.6°F16.4°C 77% Calm Calm -- 29.90 in1012.5 mb 0.00 in0.0 mm 0.00 in0.0 mm 0.09 in2.3 mm
01:01 PM 69.1°F20.6°C 61.6°F16.4°C 77% Calm Calm -- 29.90 in1012.5 mb 0.00 in0.0 mm 0.00 in0.0 mm 0.09 in2.3 mm
01:03 PM 69.1°F20.6°C 61.6°F16.4°C 77% Calm Calm -- 29.90 in1012.5 mb 0.00 in0.0 mm 0.00 in0.0 mm 0.09 in2.3 mm
01:05 PM 69.1°F20.6°C 61.6°F16.4°C 77% Calm Calm -- 29.89 in1012.2 mb 0.00 in0.0 mm 0.00 in0.0 mm 0.09 in2.3 mm
01:07 PM 69.1°F20.6°C 61.6°F16.4°C 77% Calm Calm -- 29.89 in1012.2 mb 0.00 in0.0 mm 0.00 in0.0 mm 0.09 in2.3 mm
01:09 PM 71.8°F22.1°C 64.2°F17.9°C 77% Calm Calm -- 29.89 in1012.2 mb 0.00 in0.0 mm 0.00 in0.0 mm 0.09 in2.3 mm
01:11 PM 72.3°F22.4°C 63.9°F17.7°C 75% Calm Calm -- 29.89 in1012.2 mb 0.00 in0.0 mm 0.00 in0.0 mm 0.09 in2.3 mm
01:13 PM 72.5°F22.5°C 62.6°F17.0°C 71% Calm Calm -- 29.90 in1012.5 mb 0.00 in0.0 mm 0.00 in0.0 mm 0.09 in2.3 mm
01:15 PM 72.7°F22.6°C 62.7°F17.1°C 71% Calm Calm -- 29.89 in1012.2 mb 0.00 in0.0 mm 0.00 in0.0 mm 0.09 in2.3 mm
01:17 PM 72.7°F22.6°C 62.3°F16.8°C 70% Calm Calm -- 29.89 in1012.2 mb 0.00 in0.0 mm 0.00 in0.0 mm 0.09 in2.3 mm
01:19 PM 72.7°F22.6°C 62.3°F16.8°C 70% Calm Calm -- 29.89 in1012.2 mb 0.00 in0.0 mm 0.00 in0.0 mm 0.09 in2.3 mm
01:21 PM 72.7°F22.6°C 62.3°F16.8°C 70% Calm Calm -- 29.89 in1012.2 mb 0.00 in0.0 mm 0.00 in0.0 mm 0.09 in2.3 mm
01:23 PM 72.9°F22.7°C 62.5°F16.9°C 70% Calm Calm -- 29.89 in1012.2 mb 0.00 in0.0 mm 0.00 in0.0 mm 0.09 in2.3 mm
01:25 PM 72.7°F22.6°C 62.3°F16.8°C 70% Calm Calm -- 29.89 in1012.2 mb 0.00 in0.0 mm 0.00 in0.0 mm 0.09 in2.3 mm
01:27 PM 72.7°F22.6°C 62.3°F16.8°C 70% Calm Calm -- 29.89 in1012.2 mb 0.00 in0.0 mm 0.00 in0.0 mm 0.09 in2.3 mm
01:29 PM 72.7°F22.6°C 62.3°F16.8°C 70% Calm Calm -- 29.88 in1011.9 mb 0.00 in0.0 mm 0.00 in0.0 mm 0.09 in2.3 mm
01:31 PM 72.5°F22.5°C 61.7°F16.5°C 69% Calm Calm -- 29.88 in1011.9 mb 0.00 in0.0 mm 0.00 in0.0 mm 0.09 in2.3 mm
01:33 PM 72.3°F22.4°C 62.4°F16.9°C 71% Calm Calm -- 29.89 in1012.2 mb 0.00 in0.0 mm 0.00 in0.0 mm 0.09 in2.3 mm
01:35 PM 72.3°F22.4°C 62.4°F16.9°C 71% Calm Calm -- 29.88 in1011.9 mb 0.00 in0.0 mm 0.00 in0.0 mm 0.09 in2.3 mm
01:37 PM 72.7°F22.6°C 61.9°F16.6°C 69% Calm Calm -- 29.89 in1012.2 mb 0.00 in0.0 mm 0.00 in0.0 mm 0.09 in2.3 mm
01:39 PM 72.7°F22.6°C 61.9°F16.6°C 69% Calm Calm -- 29.89 in1012.2 mb 0.00 in0.0 mm 0.00 in0.0 mm 0.09 in2.3 mm
01:41 PM 72.7°F22.6°C 61.5°F16.4°C 68% Calm Calm -- 29.89 in1012.2 mb 0.00 in0.0 mm 0.00 in0.0 mm 0.09 in2.3 mm
01:43 PM 72.5°F22.5°C 61.3°F16.3°C 68% Calm Calm -- 29.88 in1011.9 mb 0.00 in0.0 mm 0.00 in0.0 mm 0.09 in2.3 mm
01:45 PM 72.1°F22.3°C 61.8°F16.6°C 70% Calm Calm -- 29.88 in1011.9 mb 0.00 in0.0 mm 0.00 in0.0 mm 0.09 in2.3 mm
01:47 PM 72.0°F22.2°C 62.0°F16.7°C 71% Calm Calm 0.7 mph1.1 kmh 29.88 in1011.9 mb 0.00 in0.0 mm 0.00 in0.0 mm 0.09 in2.3 mm
01:49 PM 72.0°F22.2°C 62.0°F16.7°C 71% Calm Calm 0.7 mph1.1 kmh 29.88 in1011.9 mb 0.00 in0.0 mm 0.00 in0.0 mm 0.09 in2.3 mm
01:51 PM 71.8°F22.1°C 61.9°F16.6°C 71% Calm Calm 0.7 mph1.1 kmh 29.87 in1011.5 mb 0.00 in0.0 mm 0.00 in0.0 mm 0.09 in2.3 mm
01:53 PM 71.4°F21.9°C 61.5°F16.4°C 71% Calm Calm -- 29.88 in1011.9 mb 0.00 in0.0 mm 0.00 in0.0 mm 0.09 in2.3 mm
01:55 PM 71.1°F21.7°C 61.2°F16.2°C 71% Calm Calm 0.7 mph1.1 kmh 29.88 in1011.9 mb 0.00 in0.0 mm 0.00 in0.0 mm 0.09 in2.3 mm
01:57 PM 70.5°F21.4°C 61.1°F16.2°C 72% 6.9 mph SE11.1 kmh SE 7.6 mph12.2 kmh 29.88 in1011.9 mb 0.00 in0.0 mm 0.00 in0.0 mm 0.09 in2.3 mm
01:59 PM 70.0°F21.1°C 60.5°F15.8°C 72% 7.6 mph SE12.2 kmh SE 8.3 mph13.4 kmh 29.88 in1011.9 mb 0.00 in0.0 mm 0.00 in0.0 mm 0.09 in2.3 mm
02:01 PM 69.4°F20.8°C 60.4°F15.8°C 73% 5.4 mph E8.7 kmh E 6.9 mph11.1 kmh 29.87 in1011.5 mb 0.00 in0.0 mm 0.00 in0.0 mm 0.09 in2.3 mm
02:03 PM 69.1°F20.6°C 60.4°F15.8°C 74% 4.5 mph E7.2 kmh E 6.0 mph9.7 kmh 29.87 in1011.5 mb 0.00 in0.0 mm 0.00 in0.0 mm 0.09 in2.3 mm
02:05 PM 68.5°F20.3°C 60.3°F15.7°C 75% 5.4 mph E8.7 kmh E 6.0 mph9.7 kmh 29.87 in1011.5 mb 0.00 in0.0 mm 0.00 in0.0 mm 0.09 in2.3 mm
02:07 PM 68.5°F20.3°C 60.3°F15.7°C 75% 4.5 mph E7.2 kmh E 6.0 mph9.7 kmh 29.87 in1011.5 mb 0.00 in0.0 mm 0.00 in0.0 mm 0.09 in2.3 mm
02:09 PM 68.0°F20.0°C 60.1°F15.6°C 76% 7.6 mph E12.2 kmh E 8.3 mph13.4 kmh 29.87 in1011.5 mb 0.00 in0.0 mm 0.00 in0.0 mm 0.09 in2.3 mm
02:11 PM 67.8°F19.9°C 60.3°F15.7°C 77% 6.0 mph E9.7 kmh E 8.3 mph13.4 kmh 29.87 in1011.5 mb 0.00 in0.0 mm 0.00 in0.0 mm 0.09 in2.3 mm
02:13 PM 67.6°F19.8°C 60.2°F15.7°C 77% 6.9 mph SE11.1 kmh SE 7.6 mph12.2 kmh 29.88 in1011.9 mb 0.00 in0.0 mm 0.00 in0.0 mm 0.09 in2.3 mm
02:15 PM 67.3°F19.6°C 59.8°F15.4°C 77% 8.3 mph ENE13.4 kmh ENE 10.7 mph17.2 kmh 29.88 in1011.9 mb 0.00 in0.0 mm 0.00 in0.0 mm 0.09 in2.3 mm
02:17 PM 67.1°F19.5°C 59.6°F15.3°C 77% 8.3 mph SE13.4 kmh SE 9.8 mph15.8 kmh 29.87 in1011.5 mb 0.00 in0.0 mm 0.00 in0.0 mm 0.09 in2.3 mm
02:19 PM 66.7°F19.3°C 59.3°F15.2°C 77% 7.6 mph ENE12.2 kmh ENE 9.8 mph15.8 kmh 29.87 in1011.5 mb 0.00 in0.0 mm 0.00 in0.0 mm 0.09 in2.3 mm
02:21 PM 66.4°F19.1°C 59.3°F15.2°C 78% 3.1 mph S5.0 kmh S 4.5 mph7.2 kmh 29.87 in1011.5 mb 0.01 in0.3 mm 0.35 in8.9 mm 0.11 in2.8 mm
02:23 PM 66.2°F19.0°C 59.1°F15.1°C 78% 3.1 mph SE5.0 kmh SE 4.5 mph7.2 kmh 29.87 in1011.5 mb 0.01 in0.3 mm 0.00 in0.0 mm 0.11 in2.8 mm
02:26 PM 66.2°F19.0°C 59.5°F15.3°C 79% 1.6 mph SE2.6 kmh SE 3.1 mph5.0 kmh 29.87 in1011.5 mb 0.01 in0.3 mm 0.00 in0.0 mm 0.11 in2.8 mm
02:28 PM 65.8°F18.8°C 59.5°F15.3°C 80% 3.1 mph SE5.0 kmh SE 3.8 mph6.1 kmh 29.86 in1011.2 mb 0.05 in1.3 mm 1.06 in26.9 mm 0.14 in3.6 mm
02:29 PM 65.7°F18.7°C 59.7°F15.4°C 81% 3.8 mph E6.1 kmh E 4.5 mph7.2 kmh 29.86 in1011.2 mb 0.09 in2.3 mm 2.84 in72.1 mm 0.19 in4.8 mm
02:32 PM 65.5°F18.6°C 59.8°F15.4°C 82% 3.8 mph ENE6.1 kmh ENE 4.5 mph7.2 kmh 29.86 in1011.2 mb 0.09 in2.3 mm 0.00 in0.0 mm 0.19 in4.8 mm
02:34 PM 65.3°F18.5°C 60.0°F15.6°C 83% 2.2 mph SE3.5 kmh SE 3.8 mph6.1 kmh 29.86 in1011.2 mb 0.11 in2.8 mm 0.35 in8.9 mm 0.20 in5.1 mm
02:36 PM 65.3°F18.5°C 60.3°F15.7°C 84% 0.7 mph SSE1.1 kmh SSE 1.6 mph2.6 kmh 29.86 in1011.2 mb 0.11 in2.8 mm 0.00 in0.0 mm 0.20 in5.1 mm
02:38 PM 65.1°F18.4°C 60.2°F15.7°C 84% 3.8 mph SE6.1 kmh SE 4.5 mph7.2 kmh 29.86 in1011.2 mb 0.12 in3.0 mm 0.35 in8.9 mm 0.21 in5.3 mm
02:40 PM 65.1°F18.4°C 60.5°F15.8°C 85% 4.5 mph SE7.2 kmh SE 5.4 mph8.7 kmh 29.86 in1011.2 mb 0.12 in3.0 mm 0.00 in0.0 mm 0.21 in5.3 mm
02:42 PM 65.5°F18.6°C 61.5°F16.4°C 87% 6.9 mph E11.1 kmh E 7.6 mph12.2 kmh 29.85 in1010.8 mb 0.12 in3.0 mm 0.00 in0.0 mm 0.21 in5.3 mm
02:44 PM 65.8°F18.8°C 62.2°F16.8°C 88% 3.8 mph E6.1 kmh E 5.4 mph8.7 kmh 29.85 in1010.8 mb 0.12 in3.0 mm 0.00 in0.0 mm 0.21 in5.3 mm
02:46 PM 66.4°F19.1°C 63.4°F17.4°C 90% 5.4 mph E8.7 kmh E 6.9 mph11.1 kmh 29.85 in1010.8 mb 0.12 in3.0 mm 0.00 in0.0 mm 0.21 in5.3 mm
02:48 PM 66.7°F19.3°C 64.0°F17.8°C 91% 4.5 mph ENE7.2 kmh ENE 5.4 mph8.7 kmh 29.85 in1010.8 mb 0.13 in3.3 mm 0.35 in8.9 mm 0.22 in5.6 mm
02:50 PM 66.9°F19.4°C 64.2°F17.9°C 91% 3.8 mph E6.1 kmh E 4.5 mph7.2 kmh 29.85 in1010.8 mb 0.13 in3.3 mm 0.00 in0.0 mm 0.22 in5.6 mm
02:52 PM 66.7°F19.3°C 63.7°F17.6°C 90% 2.2 mph E3.5 kmh E 3.8 mph6.1 kmh 29.84 in1010.5 mb 0.13 in3.3 mm 0.00 in0.0 mm 0.22 in5.6 mm
02:54 PM 66.7°F19.3°C 63.7°F17.6°C 90% 4.5 mph NE7.2 kmh NE 5.4 mph8.7 kmh 29.85 in1010.8 mb 0.13 in3.3 mm 0.00 in0.0 mm 0.22 in5.6 mm
02:56 PM 66.6°F19.2°C 63.5°F17.5°C 90% 4.5 mph E7.2 kmh E 5.4 mph8.7 kmh 29.85 in1010.8 mb 0.13 in3.3 mm 0.00 in0.0 mm 0.22 in5.6 mm
02:58 PM 66.6°F19.2°C 63.5°F17.5°C 90% 4.5 mph NE7.2 kmh NE 5.4 mph8.7 kmh 29.85 in1010.8 mb 0.13 in3.3 mm 0.00 in0.0 mm 0.22 in5.6 mm
03:00 PM 66.4°F19.1°C 63.0°F17.2°C 89% 3.8 mph NE6.1 kmh NE 5.4 mph8.7 kmh 29.85 in1010.8 mb 0.13 in3.3 mm 0.00 in0.0 mm 0.22 in5.6 mm
03:02 PM 66.2°F19.0°C 62.9°F17.2°C 89% 4.5 mph NE7.2 kmh NE 5.4 mph8.7 kmh 29.84 in1010.5 mb 0.13 in3.3 mm 0.00 in0.0 mm 0.22 in5.6 mm
03:04 PM 66.0°F18.9°C 62.7°F17.1°C 89% 6.0 mph E9.7 kmh E 6.9 mph11.1 kmh 29.86 in1011.2 mb 0.13 in3.3 mm 0.00 in0.0 mm 0.22 in5.6 mm
03:06 PM 66.0°F18.9°C 62.4°F16.9°C 88% 6.0 mph E9.7 kmh E 6.9 mph11.1 kmh 29.85 in1010.8 mb 0.13 in3.3 mm 0.00 in0.0 mm 0.22 in5.6 mm
03:08 PM 66.0°F18.9°C 62.7°F17.1°C 89% 5.4 mph E8.7 kmh E 6.0 mph9.7 kmh 29.85 in1010.8 mb 0.13 in3.3 mm 0.00 in0.0 mm 0.22 in5.6 mm
03:10 PM 65.8°F18.8°C 62.5°F16.9°C 89% 8.3 mph E13.4 kmh E 9.2 mph14.8 kmh 29.85 in1010.8 mb 0.13 in3.3 mm 0.00 in0.0 mm 0.22 in5.6 mm
03:12 PM 65.8°F18.8°C 62.2°F16.8°C 88% 9.2 mph E14.8 kmh E 9.8 mph15.8 kmh 29.86 in1011.2 mb 0.13 in3.3 mm 0.00 in0.0 mm 0.22 in5.6 mm
03:14 PM 65.8°F18.8°C 62.2°F16.8°C 88% 10.7 mph E17.2 kmh E 12.1 mph19.5 kmh 29.85 in1010.8 mb 0.13 in3.3 mm 0.00 in0.0 mm 0.22 in5.6 mm
03:16 PM 65.8°F18.8°C 62.5°F16.9°C 89% 7.6 mph E12.2 kmh E 9.2 mph14.8 kmh 29.86 in1011.2 mb 0.13 in3.3 mm 0.00 in0.0 mm 0.22 in5.6 mm
03:18 PM 65.8°F18.8°C 62.5°F16.9°C 89% 8.3 mph E13.4 kmh E 9.8 mph15.8 kmh 29.85 in1010.8 mb 0.13 in3.3 mm 0.00 in0.0 mm 0.22 in5.6 mm
03:20 PM 65.8°F18.8°C 62.5°F16.9°C 89% 6.9 mph E11.1 kmh E 7.6 mph12.2 kmh 29.86 in1011.2 mb 0.12 in3.0 mm 0.00 in0.0 mm 0.22 in5.6 mm
03:22 PM 65.8°F18.8°C 62.5°F16.9°C 89% 6.9 mph E11.1 kmh E 8.3 mph13.4 kmh 29.85 in1010.8 mb 0.12 in3.0 mm 0.00 in0.0 mm 0.22 in5.6 mm
03:24 PM 66.0°F18.9°C 62.7°F17.1°C 89% 6.0 mph E9.7 kmh E 8.3 mph13.4 kmh 29.86 in1011.2 mb 0.12 in3.0 mm 0.00 in0.0 mm 0.22 in5.6 mm
03:26 PM 66.0°F18.9°C 62.7°F17.1°C 89% 5.4 mph E8.7 kmh E 6.9 mph11.1 kmh 29.85 in1010.8 mb 0.08 in2.0 mm 0.00 in0.0 mm 0.22 in5.6 mm
03:28 PM 66.0°F18.9°C 62.7°F17.1°C 89% 5.4 mph E8.7 kmh E 6.9 mph11.1 kmh 29.85 in1010.8 mb 0.04 in1.0 mm 0.00 in0.0 mm 0.22 in5.6 mm
03:30 PM 65.8°F18.8°C 62.2°F16.8°C 88% 6.9 mph E11.1 kmh E 7.6 mph12.2 kmh 29.86 in1011.2 mb 0.04 in1.0 mm 0.00 in0.0 mm 0.22 in5.6 mm
03:32 PM 65.8°F18.8°C 62.2°F16.8°C 88% 5.4 mph E8.7 kmh E 8.3 mph13.4 kmh 29.85 in1010.8 mb 0.02 in0.5 mm 0.00 in0.0 mm 0.22 in5.6 mm
03:34 PM 65.8°F18.8°C 61.9°F16.6°C 87% 6.0 mph E9.7 kmh E 7.6 mph12.2 kmh 29.85 in1010.8 mb 0.02 in0.5 mm 0.00 in0.0 mm 0.22 in5.6 mm
03:36 PM 65.8°F18.8°C 62.2°F16.8°C 88% 6.0 mph E9.7 kmh E 7.6 mph12.2 kmh 29.85 in1010.8 mb 0.01 in0.3 mm 0.00 in0.0 mm 0.22 in5.6 mm
03:38 PM 65.8°F18.8°C 62.2°F16.8°C 88% 6.0 mph E9.7 kmh E 7.6 mph12.2 kmh 29.85 in1010.8 mb 0.01 in0.3 mm 0.00 in0.0 mm 0.22 in5.6 mm
03:40 PM 65.8°F18.8°C 61.9°F16.6°C 87% 8.3 mph E13.4 kmh E 9.8 mph15.8 kmh 29.84 in1010.5 mb 0.01 in0.3 mm 0.00 in0.0 mm 0.22 in5.6 mm
03:42 PM 65.8°F18.8°C 62.2°F16.8°C 88% 6.0 mph E9.7 kmh E 9.2 mph14.8 kmh 29.85 in1010.8 mb 0.01 in0.3 mm 0.00 in0.0 mm 0.22 in5.6 mm
03:44 PM 65.8°F18.8°C 62.2°F16.8°C 88% 6.9 mph E11.1 kmh E 7.6 mph12.2 kmh 29.84 in1010.5 mb 0.01 in0.3 mm 0.00 in0.0 mm 0.22 in5.6 mm
03:46 PM 65.8°F18.8°C 62.2°F16.8°C 88% 7.6 mph ENE12.2 kmh ENE 9.2 mph14.8 kmh 29.84 in1010.5 mb 0.01 in0.3 mm 0.00 in0.0 mm 0.22 in5.6 mm
03:48 PM 65.8°F18.8°C 62.2°F16.8°C 88% 7.6 mph E12.2 kmh E 9.8 mph15.8 kmh 29.84 in1010.5 mb 0.00 in0.0 mm 0.00 in0.0 mm 0.22 in5.6 mm
03:50 PM 65.8°F18.8°C 62.2°F16.8°C 88% 9.2 mph ENE14.8 kmh ENE 9.8 mph15.8 kmh 29.84 in1010.5 mb 0.00 in0.0 mm 0.00 in0.0 mm 0.22 in5.6 mm
03:54 PM 65.7°F18.7°C 61.4°F16.3°C 86% 9.8 mph E15.8 kmh E 10.7 mph17.2 kmh 29.84 in1010.5 mb 0.00 in0.0 mm 0.00 in0.0 mm 0.22 in5.6 mm
03:56 PM 65.5°F18.6°C 60.9°F16.1°C 85% 9.2 mph E14.8 kmh E 10.7 mph17.2 kmh 29.84 in1010.5 mb 0.00 in0.0 mm 0.00 in0.0 mm 0.22 in5.6 mm
03:58 PM 65.3°F18.5°C 60.7°F15.9°C 85% 7.6 mph E12.2 kmh E 8.3 mph13.4 kmh 29.84 in1010.5 mb 0.00 in0.0 mm 0.00 in0.0 mm 0.22 in5.6 mm
04:00 PM 65.1°F18.4°C 60.5°F15.8°C 85% 9.8 mph E15.8 kmh E 11.4 mph18.3 kmh 29.85 in1010.8 mb 0.00 in0.0 mm 0.00 in0.0 mm 0.22 in5.6 mm
04:04 PM 64.9°F18.3°C 60.3°F15.7°C 85% 6.9 mph E11.1 kmh E 8.3 mph13.4 kmh 29.85 in1010.8 mb 0.00 in0.0 mm 0.00 in0.0 mm 0.22 in5.6 mm
04:06 PM 64.9°F18.3°C 60.3°F15.7°C 85% 6.9 mph E11.1 kmh E 7.6 mph12.2 kmh 29.85 in1010.8 mb 0.00 in0.0 mm 0.00 in0.0 mm 0.22 in5.6 mm
04:08 PM 64.8°F18.2°C 60.1°F15.6°C 85% 5.4 mph NE8.7 kmh NE 6.9 mph11.1 kmh 29.86 in1011.2 mb 0.00 in0.0 mm 0.00 in0.0 mm 0.22 in5.6 mm
04:10 PM 64.6°F18.1°C 60.0°F15.6°C 85% 5.4 mph NE8.7 kmh NE 6.0 mph9.7 kmh 29.86 in1011.2 mb 0.00 in0.0 mm 0.00 in0.0 mm 0.22 in5.6 mm
04:12 PM 64.6°F18.1°C 60.0°F15.6°C 85% 6.9 mph NNW11.1 kmh NNW 8.3 mph13.4 kmh 29.86 in1011.2 mb 0.00 in0.0 mm 0.00 in0.0 mm 0.22 in5.6 mm
04:14 PM 64.0°F17.8°C 58.1°F14.5°C 81% 9.8 mph NW15.8 kmh NW 11.4 mph18.3 kmh 29.86 in1011.2 mb 0.00 in0.0 mm 0.00 in0.0 mm 0.22 in5.6 mm
04:16 PM 63.1°F17.3°C 54.7°F12.6°C 74% 3.8 mph NW6.1 kmh NW 4.5 mph7.2 kmh 29.87 in1011.5 mb 0.00 in0.0 mm 0.00 in0.0 mm 0.22 in5.6 mm
04:18 PM 62.8°F17.1°C 54.0°F12.2°C 73% 5.4 mph NW8.7 kmh NW 6.9 mph11.1 kmh 29.86 in1011.2 mb 0.00 in0.0 mm 0.00 in0.0 mm 0.22 in5.6 mm
04:20 PM 62.1°F16.7°C 53.3°F11.8°C 73% 7.6 mph NW12.2 kmh NW 10.7 mph17.2 kmh 29.86 in1011.2 mb 0.00 in0.0 mm 0.00 in0.0 mm 0.22 in5.6 mm
04:22 PM 61.7°F16.5°C 53.0°F11.7°C 73% 5.4 mph NW8.7 kmh NW 9.8 mph15.8 kmh 29.86 in1011.2 mb 0.00 in0.0 mm 0.00 in0.0 mm 0.22 in5.6 mm
04:24 PM 61.2°F16.2°C 52.8°F11.6°C 74% 9.2 mph NW14.8 kmh NW 15.2 mph24.5 kmh 29.86 in1011.2 mb 0.00 in0.0 mm 0.00 in0.0 mm 0.22 in5.6 mm
04:26 PM 60.8°F16.0°C 52.5°F11.4°C 74% 8.3 mph W13.4 kmh W 9.2 mph14.8 kmh 29.87 in1011.5 mb 0.00 in0.0 mm 0.00 in0.0 mm 0.22 in5.6 mm
04:28 PM 60.6°F15.9°C 53.0°F11.7°C 76% 10.7 mph NW17.2 kmh NW 13.0 mph20.9 kmh 29.87 in1011.5 mb 0.00 in0.0 mm 0.00 in0.0 mm 0.22 in5.6 mm
04:30 PM 60.6°F15.9°C 53.7°F12.1°C 78% 6.9 mph W11.1 kmh W 9.2 mph14.8 kmh 29.87 in1011.5 mb 0.00 in0.0 mm 0.00 in0.0 mm 0.22 in5.6 mm
04:32 PM 60.3°F15.7°C 53.4°F11.9°C 78% 3.1 mph 5.0 kmh 3.8 mph6.1 kmh 29.88 in1011.9 mb 0.00 in0.0 mm 0.00 in0.0 mm 0.22 in5.6 mm
04:34 PM 60.1°F15.6°C 53.5°F11.9°C 79% 2.2 mph SW3.5 kmh SW 3.8 mph6.1 kmh 29.88 in1011.9 mb 0.00 in0.0 mm 0.00 in0.0 mm 0.22 in5.6 mm
04:36 PM 59.9°F15.5°C 53.7°F12.1°C 80% 3.1 mph W5.0 kmh W 4.5 mph7.2 kmh 29.88 in1011.9 mb 0.01 in0.3 mm 0.35 in8.9 mm 0.24 in6.1 mm
04:38 PM 59.4°F15.2°C 53.5°F11.9°C 81% 5.4 mph W8.7 kmh W 6.0 mph9.7 kmh 29.88 in1011.9 mb 0.05 in1.3 mm 1.06 in26.9 mm 0.27 in6.9 mm
04:40 PM 59.0°F15.0°C 53.2°F11.8°C 81% 6.9 mph NW11.1 kmh NW 7.6 mph12.2 kmh 29.87 in1011.5 mb 0.05 in1.3 mm 0.00 in0.0 mm 0.27 in6.9 mm
04:42 PM 59.0°F15.0°C 53.8°F12.1°C 83% 11.4 mph 18.3 kmh 13.0 mph20.9 kmh 29.87 in1011.5 mb 0.05 in1.3 mm 0.00 in0.0 mm 0.27 in6.9 mm
04:44 PM 59.2°F15.1°C 55.0°F12.8°C 86% 12.1 mph NW19.5 kmh NW 13.7 mph22.0 kmh 29.87 in1011.5 mb 0.05 in1.3 mm 0.00 in0.0 mm 0.27 in6.9 mm
04:46 PM 59.4°F15.2°C 55.5°F13.1°C 87% 11.4 mph NW18.3 kmh NW 12.1 mph19.5 kmh 29.88 in1011.9 mb 0.05 in1.3 mm 0.00 in0.0 mm 0.27 in6.9 mm
04:48 PM 59.4°F15.2°C 56.1°F13.4°C 89% 9.8 mph NW15.8 kmh NW 11.4 mph18.3 kmh 29.87 in1011.5 mb 0.06 in1.5 mm 0.36 in9.1 mm 0.28 in7.1 mm
04:50 PM 59.4°F15.2°C 56.1°F13.4°C 89% 11.4 mph NW18.3 kmh NW 13.0 mph20.9 kmh 29.87 in1011.5 mb 0.06 in1.5 mm 0.00 in0.0 mm 0.28 in7.1 mm
04:52 PM 59.4°F15.2°C 56.1°F13.4°C 89% 13.0 mph NW20.9 kmh NW 13.7 mph22.0 kmh 29.88 in1011.9 mb 0.06 in1.5 mm 0.00 in0.0 mm 0.28 in7.1 mm
04:54 PM 59.7°F15.4°C 56.5°F13.6°C 89% 9.8 mph NW15.8 kmh NW 11.4 mph18.3 kmh 29.88 in1011.9 mb 0.06 in1.5 mm 0.00 in0.0 mm 0.28 in7.1 mm
04:56 PM 59.9°F15.5°C 57.0°F13.9°C 90% 9.8 mph NW15.8 kmh NW 10.7 mph17.2 kmh 29.88 in1011.9 mb 0.06 in1.5 mm 0.00 in0.0 mm 0.28 in7.1 mm
04:58 PM 59.7°F15.4°C 56.5°F13.6°C 89% 6.0 mph SW9.7 kmh SW 7.6 mph12.2 kmh 29.88 in1011.9 mb 0.06 in1.5 mm 0.00 in0.0 mm 0.28 in7.1 mm
05:00 PM 59.5°F15.3°C 55.7°F13.2°C 87% 3.1 mph W5.0 kmh W 4.5 mph7.2 kmh 29.88 in1011.9 mb 0.06 in1.5 mm 0.00 in0.0 mm 0.28 in7.1 mm
05:02 PM 59.4°F15.2°C 55.2°F12.9°C 86% 4.5 mph W7.2 kmh W 6.0 mph9.7 kmh 29.89 in1012.2 mb 0.06 in1.5 mm 0.00 in0.0 mm 0.28 in7.1 mm
05:04 PM 59.0°F15.0°C 54.5°F12.5°C 85% 4.5 mph NW7.2 kmh NW 6.0 mph9.7 kmh 29.89 in1012.2 mb 0.06 in1.5 mm 0.00 in0.0 mm 0.28 in7.1 mm
05:06 PM 59.0°F15.0°C 54.5°F12.5°C 85% 4.5 mph NNW7.2 kmh NNW 6.0 mph9.7 kmh 29.88 in1011.9 mb 0.06 in1.5 mm 0.00 in0.0 mm 0.28 in7.1 mm
05:08 PM 59.2°F15.1°C 54.7°F12.6°C 85% 8.3 mph NW13.4 kmh NW 9.2 mph14.8 kmh 29.88 in1011.9 mb 0.06 in1.5 mm 0.00 in0.0 mm 0.28 in7.1 mm
05:10 PM 59.4°F15.2°C 55.2°F12.9°C 86% 7.6 mph NW12.2 kmh NW 9.2 mph14.8 kmh 29.89 in1012.2 mb 0.06 in1.5 mm 0.00 in0.0 mm 0.28 in7.1 mm
05:12 PM 59.5°F15.3°C 55.0°F12.8°C 85% 8.3 mph NNW13.4 kmh NNW 9.2 mph14.8 kmh 29.89 in1012.2 mb 0.06 in1.5 mm 0.00 in0.0 mm 0.28 in7.1 mm
05:14 PM 59.7°F15.4°C 55.2°F12.9°C 85% 6.9 mph NW11.1 kmh NW 8.3 mph13.4 kmh 29.89 in1012.2 mb 0.06 in1.5 mm 0.00 in0.0 mm 0.28 in7.1 mm
05:16 PM 59.9°F15.5°C 55.1°F12.8°C 84% 7.6 mph 12.2 kmh 9.2 mph14.8 kmh 29.89 in1012.2 mb 0.06 in1.5 mm 0.00 in0.0 mm 0.28 in7.1 mm
05:18 PM 59.9°F15.5°C 55.1°F12.8°C 84% 8.3 mph NW13.4 kmh NW 9.2 mph14.8 kmh 29.89 in1012.2 mb 0.06 in1.5 mm 0.00 in0.0 mm 0.28 in7.1 mm
05:20 PM 60.1°F15.6°C 54.9°F12.7°C 83% 7.6 mph NW12.2 kmh NW 8.3 mph13.4 kmh 29.89 in1012.2 mb 0.06 in1.5 mm 0.00 in0.0 mm 0.28 in7.1 mm
05:22 PM 60.3°F15.7°C 54.7°F12.6°C 82% 5.4 mph NW8.7 kmh NW 6.9 mph11.1 kmh 29.89 in1012.2 mb 0.06 in1.5 mm 0.00 in0.0 mm 0.28 in7.1 mm
05:24 PM 60.3°F15.7°C 54.4°F12.4°C 81% 6.0 mph NW9.7 kmh NW 6.9 mph11.1 kmh 29.89 in1012.2 mb 0.06 in1.5 mm 0.00 in0.0 mm 0.28 in7.1 mm
05:26 PM 60.3°F15.7°C 54.4°F12.4°C 81% 6.0 mph NW9.7 kmh NW 6.9 mph11.1 kmh 29.89 in1012.2 mb 0.06 in1.5 mm 0.00 in0.0 mm 0.28 in7.1 mm
05:28 PM 60.3°F15.7°C 54.1°F12.3°C 80% 5.4 mph NW8.7 kmh NW 6.9 mph11.1 kmh 29.89 in1012.2 mb 0.06 in1.5 mm 0.00 in0.0 mm 0.28 in7.1 mm
05:30 PM 60.3°F15.7°C 54.1°F12.3°C 80% 4.5 mph NW7.2 kmh NW 6.0 mph9.7 kmh 29.89 in1012.2 mb 0.06 in1.5 mm 0.00 in0.0 mm 0.28 in7.1 mm
05:32 PM 60.1°F15.6°C 53.9°F12.2°C 80% 6.0 mph NW9.7 kmh NW 6.9 mph11.1 kmh 29.90 in1012.5 mb 0.06 in1.5 mm 0.00 in0.0 mm 0.28 in7.1 mm
05:34 PM 60.1°F15.6°C 53.5°F11.9°C 79% 5.4 mph NW8.7 kmh NW 6.0 mph9.7 kmh 29.89 in1012.2 mb 0.06 in1.5 mm 0.00 in0.0 mm 0.28 in7.1 mm
05:36 PM 60.1°F15.6°C 53.9°F12.2°C 80% 6.0 mph NW9.7 kmh NW 6.9 mph11.1 kmh 29.89 in1012.2 mb 0.02 in0.5 mm 0.00 in0.0 mm 0.28 in7.1 mm
05:38 PM 60.1°F15.6°C 53.2°F11.8°C 78% 3.8 mph NW6.1 kmh NW 5.4 mph8.7 kmh 29.89 in1012.2 mb 0.01 in0.3 mm 0.00 in0.0 mm 0.28 in7.1 mm
05:40 PM 59.9°F15.5°C 53.0°F11.7°C 78% 2.2 mph W3.5 kmh W 3.1 mph5.0 kmh 29.89 in1012.2 mb 0.01 in0.3 mm 0.00 in0.0 mm 0.28 in7.1 mm
05:42 PM 59.7°F15.4°C 52.9°F11.6°C 78% 2.2 mph W3.5 kmh W 3.8 mph6.1 kmh 29.89 in1012.2 mb 0.01 in0.3 mm 0.00 in0.0 mm 0.28 in7.1 mm
05:44 PM 59.5°F15.3°C 53.0°F11.7°C 79% Calm Calm -- 29.89 in1012.2 mb 0.01 in0.3 mm 0.00 in0.0 mm 0.28 in7.1 mm
05:46 PM 59.5°F15.3°C 53.0°F11.7°C 79% 0.7 mph NW1.1 kmh NW 1.6 mph2.6 kmh 29.89 in1012.2 mb 0.01 in0.3 mm 0.00 in0.0 mm 0.28 in7.1 mm
05:48 PM 59.4°F15.2°C 53.2°F11.8°C 80% Calm Calm 0.7 mph1.1 kmh 29.89 in1012.2 mb 0.00 in0.0 mm 0.00 in0.0 mm 0.28 in7.1 mm
05:50 PM 59.4°F15.2°C 53.2°F11.8°C 80% 1.6 mph W2.6 kmh W 2.2 mph3.5 kmh 29.89 in1012.2 mb 0.00 in0.0 mm 0.00 in0.0 mm 0.28 in7.1 mm
05:52 PM 59.2°F15.1°C 53.0°F11.7°C 80% Calm Calm -- 29.89 in1012.2 mb 0.00 in0.0 mm 0.00 in0.0 mm 0.28 in7.1 mm
05:54 PM 59.0°F15.0°C 53.2°F11.8°C 81% Calm Calm -- 29.88 in1011.9 mb 0.00 in0.0 mm 0.00 in0.0 mm 0.28 in7.1 mm
05:56 PM 59.0°F15.0°C 53.2°F11.8°C 81% Calm Calm -- 29.89 in1012.2 mb 0.00 in0.0 mm 0.00 in0.0 mm 0.28 in7.1 mm
05:58 PM 59.0°F15.0°C 53.2°F11.8°C 81% Calm Calm -- 29.89 in1012.2 mb 0.00 in0.0 mm 0.00 in0.0 mm 0.28 in7.1 mm
06:00 PM 58.6°F14.8°C 52.8°F11.6°C 81% 2.2 mph SE3.5 kmh SE 3.1 mph5.0 kmh 29.89 in1012.2 mb 0.00 in0.0 mm 0.00 in0.0 mm 0.28 in7.1 mm
06:03 PM 58.6°F14.8°C 53.2°F11.8°C 82% 3.1 mph SE5.0 kmh SE 3.8 mph6.1 kmh 29.89 in1012.2 mb 0.00 in0.0 mm 0.00 in0.0 mm 0.28 in7.1 mm
06:04 PM 58.6°F14.8°C 53.2°F11.8°C 82% 1.6 mph SE2.6 kmh SE 2.2 mph3.5 kmh 29.89 in1012.2 mb 0.00 in0.0 mm 0.00 in0.0 mm 0.28 in7.1 mm
06:06 PM 58.6°F14.8°C 53.2°F11.8°C 82% 0.7 mph SE1.1 kmh SE 1.6 mph2.6 kmh 29.89 in1012.2 mb 0.00 in0.0 mm 0.00 in0.0 mm 0.28 in7.1 mm
06:09 PM 58.5°F14.7°C 53.0°F11.7°C 82% Calm Calm 0.7 mph1.1 kmh 29.89 in1012.2 mb 0.00 in0.0 mm 0.00 in0.0 mm 0.28 in7.1 mm
06:11 PM 58.5°F14.7°C 53.3°F11.8°C 83% 0.7 mph S1.1 kmh S 1.6 mph2.6 kmh 29.89 in1012.2 mb 0.00 in0.0 mm 0.00 in0.0 mm 0.28 in7.1 mm
06:13 PM 58.3°F14.6°C 53.1°F11.7°C 83% Calm Calm 0.7 mph1.1 kmh 29.89 in1012.2 mb 0.00 in0.0 mm 0.00 in0.0 mm 0.28 in7.1 mm
06:15 PM 58.3°F14.6°C 53.1°F11.7°C 83% 0.7 mph S1.1 kmh S 1.6 mph2.6 kmh 29.89 in1012.2 mb 0.00 in0.0 mm 0.00 in0.0 mm 0.28 in7.1 mm
06:17 PM 58.1°F14.5°C 53.0°F11.7°C 83% 3.1 mph E5.0 kmh E 3.8 mph6.1 kmh 29.89 in1012.2 mb 0.00 in0.0 mm 0.00 in0.0 mm 0.28 in7.1 mm
06:19 PM 58.1°F14.5°C 53.3°F11.8°C 84% 4.5 mph S7.2 kmh S 6.0 mph9.7 kmh 29.89 in1012.2 mb 0.00 in0.0 mm 0.00 in0.0 mm 0.28 in7.1 mm
06:21 PM 58.3°F14.6°C 53.8°F12.1°C 85% 1.6 mph SE2.6 kmh SE 2.2 mph3.5 kmh 29.89 in1012.2 mb 0.00 in0.0 mm 0.00 in0.0 mm 0.28 in7.1 mm
06:23 PM 58.3°F14.6°C 53.8°F12.1°C 85% 0.7 mph W1.1 kmh W 0.7 mph1.1 kmh 29.89 in1012.2 mb 0.00 in0.0 mm 0.00 in0.0 mm 0.28 in7.1 mm
06:25 PM 58.3°F14.6°C 54.1°F12.3°C 86% 5.4 mph E8.7 kmh E 5.4 mph8.7 kmh 29.90 in1012.5 mb 0.00 in0.0 mm 0.00 in0.0 mm 0.28 in7.1 mm
06:27 PM 58.3°F14.6°C 54.4°F12.4°C 87% 3.8 mph E6.1 kmh E 3.8 mph6.1 kmh 29.90 in1012.5 mb 0.00 in0.0 mm 0.00 in0.0 mm 0.28 in7.1 mm
06:29 PM 58.3°F14.6°C 54.4°F12.4°C 87% 3.1 mph E5.0 kmh E 3.8 mph6.1 kmh 29.90 in1012.5 mb 0.00 in0.0 mm 0.00 in0.0 mm 0.28 in7.1 mm
06:31 PM 58.5°F14.7°C 54.6°F12.6°C 87% 2.2 mph SE3.5 kmh SE 3.1 mph5.0 kmh 29.89 in1012.2 mb 0.00 in0.0 mm 0.00 in0.0 mm 0.28 in7.1 mm
06:33 PM 58.5°F14.7°C 54.9°F12.7°C 88% Calm Calm -- 29.89 in1012.2 mb 0.00 in0.0 mm 0.00 in0.0 mm 0.28 in7.1 mm
06:35 PM 58.5°F14.7°C 54.9°F12.7°C 88% Calm Calm -- 29.90 in1012.5 mb 0.00 in0.0 mm 0.00 in0.0 mm 0.28 in7.1 mm
06:37 PM 58.5°F14.7°C 54.9°F12.7°C 88% Calm Calm -- 29.90 in1012.5 mb 0.00 in0.0 mm 0.00 in0.0 mm 0.28 in7.1 mm
06:39 PM 58.5°F14.7°C 54.9°F12.7°C 88% Calm Calm -- 29.89 in1012.2 mb 0.00 in0.0 mm 0.00 in0.0 mm 0.28 in7.1 mm
06:41 PM 58.3°F14.6°C 55.1°F12.8°C 89% Calm Calm -- 29.90 in1012.5 mb 0.00 in0.0 mm 0.00 in0.0 mm 0.28 in7.1 mm
06:43 PM 58.3°F14.6°C 55.1°F12.8°C 89% Calm Calm -- 29.90 in1012.5 mb 0.00 in0.0 mm 0.00 in0.0 mm 0.28 in7.1 mm
06:45 PM 58.1°F14.5°C 55.2°F12.9°C 90% Calm Calm -- 29.90 in1012.5 mb 0.00 in0.0 mm 0.00 in0.0 mm 0.28 in7.1 mm
06:47 PM 58.1°F14.5°C 55.2°F12.9°C 90% Calm Calm -- 29.90 in1012.5 mb 0.00 in0.0 mm 0.00 in0.0 mm 0.28 in7.1 mm
06:49 PM 57.9°F14.4°C 55.0°F12.8°C 90% Calm Calm -- 29.89 in1012.2 mb 0.00 in0.0 mm 0.00 in0.0 mm 0.28 in7.1 mm
06:51 PM 57.9°F14.4°C 55.0°F12.8°C 90% Calm Calm -- 29.89 in1012.2 mb 0.00 in0.0 mm 0.00 in0.0 mm 0.28 in7.1 mm
06:53 PM 57.7°F14.3°C 54.8°F12.7°C 90% Calm Calm -- 29.90 in1012.5 mb 0.00 in0.0 mm 0.00 in0.0 mm 0.28 in7.1 mm
06:55 PM 57.7°F14.3°C 54.8°F12.7°C 90% Calm Calm -- 29.90 in1012.5 mb 0.00 in0.0 mm 0.00 in0.0 mm 0.28 in7.1 mm
06:57 PM 57.6°F14.2°C 54.7°F12.6°C 90% Calm Calm -- 29.90 in1012.5 mb 0.00 in0.0 mm 0.00 in0.0 mm 0.28 in7.1 mm
06:59 PM 57.6°F14.2°C 54.7°F12.6°C 90% Calm Calm -- 29.90 in1012.5 mb 0.00 in0.0 mm 0.00 in0.0 mm 0.28 in7.1 mm
07:01 PM 57.6°F14.2°C 54.7°F12.6°C 90% Calm Calm -- 29.90 in1012.5 mb 0.00 in0.0 mm 0.00 in0.0 mm 0.28 in7.1 mm
07:03 PM 57.6°F14.2°C 54.7°F12.6°C 90% Calm Calm -- 29.90 in1012.5 mb 0.00 in0.0 mm 0.00 in0.0 mm 0.28 in7.1 mm
07:05 PM 57.6°F14.2°C 54.7°F12.6°C 90% Calm Calm -- 29.90 in1012.5 mb 0.00 in0.0 mm 0.00 in0.0 mm 0.28 in7.1 mm
07:07 PM 57.6°F14.2°C 54.7°F12.6°C 90% Calm Calm -- 29.90 in1012.5 mb 0.00 in0.0 mm 0.00 in0.0 mm 0.28 in7.1 mm
07:09 PM 57.4°F14.1°C 54.5°F12.5°C 90% Calm Calm -- 29.90 in1012.5 mb 0.00 in0.0 mm 0.00 in0.0 mm 0.28 in7.1 mm
07:11 PM 57.4°F14.1°C 54.5°F12.5°C 90% Calm Calm -- 29.90 in1012.5 mb 0.00 in0.0 mm 0.00 in0.0 mm 0.28 in7.1 mm
07:13 PM 57.2°F14.0°C 54.3°F12.4°C 90% Calm Calm -- 29.89 in1012.2 mb 0.00 in0.0 mm 0.00 in0.0 mm 0.28 in7.1 mm
07:15 PM 57.2°F14.0°C 54.3°F12.4°C 90% Calm Calm -- 29.90 in1012.5 mb 0.00 in0.0 mm 0.00 in0.0 mm 0.28 in7.1 mm
07:17 PM 57.0°F13.9°C 54.1°F12.3°C 90% Calm Calm -- 29.90 in1012.5 mb 0.00 in0.0 mm 0.00 in0.0 mm 0.28 in7.1 mm
07:19 PM 57.0°F13.9°C 54.1°F12.3°C 90% Calm Calm -- 29.90 in1012.5 mb 0.00 in0.0 mm 0.00 in0.0 mm 0.28 in7.1 mm
07:21 PM 56.8°F13.8°C 53.9°F12.2°C 90% Calm Calm -- 29.90 in1012.5 mb 0.00 in0.0 mm 0.00 in0.0 mm 0.28 in7.1 mm
07:23 PM 56.8°F13.8°C 53.9°F12.2°C 90% Calm Calm -- 29.90 in1012.5 mb 0.00 in0.0 mm 0.00 in0.0 mm 0.28 in7.1 mm
07:25 PM 56.7°F13.7°C 53.8°F12.1°C 90% Calm Calm -- 29.90 in1012.5 mb 0.00 in0.0 mm 0.00 in0.0 mm 0.28 in7.1 mm
07:27 PM 56.7°F13.7°C 53.8°F12.1°C 90% Calm Calm -- 29.91 in1012.9 mb 0.00 in0.0 mm 0.00 in0.0 mm 0.28 in7.1 mm
07:29 PM 56.7°F13.7°C 53.8°F12.1°C 90% Calm Calm -- 29.90 in1012.5 mb 0.00 in0.0 mm 0.00 in0.0 mm 0.28 in7.1 mm
07:31 PM 56.5°F13.6°C 53.6°F12.0°C 90% Calm Calm -- 29.91 in1012.9 mb 0.00 in0.0 mm 0.00 in0.0 mm 0.28 in7.1 mm
07:33 PM 56.5°F13.6°C 53.6°F12.0°C 90% Calm Calm -- 29.90 in1012.5 mb 0.00 in0.0 mm 0.00 in0.0 mm 0.28 in7.1 mm
07:35 PM 56.5°F13.6°C 53.6°F12.0°C 90% Calm Calm -- 29.90 in1012.5 mb 0.00 in0.0 mm 0.00 in0.0 mm 0.28 in7.1 mm
07:37 PM 56.5°F13.6°C 53.6°F12.0°C 90% Calm Calm -- 29.90 in1012.5 mb 0.00 in0.0 mm 0.00 in0.0 mm 0.28 in7.1 mm
07:39 PM 56.5°F13.6°C 53.6°F12.0°C 90% Calm Calm -- 29.90 in1012.5 mb 0.00 in0.0 mm 0.00 in0.0 mm 0.28 in7.1 mm
07:41 PM 56.5°F13.6°C 53.6°F12.0°C 90% Calm Calm -- 29.90 in1012.5 mb 0.00 in0.0 mm 0.00 in0.0 mm 0.28 in7.1 mm
07:43 PM 56.5°F13.6°C 53.9°F12.2°C 91% Calm Calm -- 29.90 in1012.5 mb 0.00 in0.0 mm 0.00 in0.0 mm 0.28 in7.1 mm
07:45 PM 56.5°F13.6°C 53.9°F12.2°C 91% Calm Calm -- 29.90 in1012.5 mb 0.00 in0.0 mm 0.00 in0.0 mm 0.28 in7.1 mm
07:47 PM 56.5°F13.6°C 53.9°F12.2°C 91% Calm Calm -- 29.90 in1012.5 mb 0.00 in0.0 mm 0.00 in0.0 mm 0.28 in7.1 mm
07:49 PM 56.5°F13.6°C 53.9°F12.2°C 91% Calm Calm -- 29.90 in1012.5 mb 0.00 in0.0 mm 0.00 in0.0 mm 0.28 in7.1 mm
07:51 PM 56.5°F13.6°C 53.9°F12.2°C 91% Calm Calm -- 29.90 in1012.5 mb 0.00 in0.0 mm 0.00 in0.0 mm 0.28 in7.1 mm
07:53 PM 56.7°F13.7°C 54.1°F12.3°C 91% Calm Calm -- 29.90 in1012.5 mb 0.00 in0.0 mm 0.00 in0.0 mm 0.28 in7.1 mm
07:55 PM 56.7°F13.7°C 54.1°F12.3°C 91% Calm Calm -- 29.90 in1012.5 mb 0.00 in0.0 mm 0.00 in0.0 mm 0.28 in7.1 mm
07:57 PM 56.7°F13.7°C 54.1°F12.3°C 91% Calm Calm -- 29.90 in1012.5 mb 0.00 in0.0 mm 0.00 in0.0 mm 0.28 in7.1 mm
07:59 PM 56.7°F13.7°C 54.4°F12.4°C 92% Calm Calm -- 29.90 in1012.5 mb 0.00 in0.0 mm 0.00 in0.0 mm 0.28 in7.1 mm
08:01 PM 56.8°F13.8°C 54.5°F12.5°C 92% Calm Calm -- 29.91 in1012.9 mb 0.00 in0.0 mm 0.00 in0.0 mm 0.28 in7.1 mm
08:03 PM 57.0°F13.9°C 54.7°F12.6°C 92% Calm Calm -- 29.90 in1012.5 mb 0.00 in0.0 mm 0.00 in0.0 mm 0.28 in7.1 mm
08:05 PM 57.2°F14.0°C 55.2°F12.9°C 93% Calm Calm -- 29.90 in1012.5 mb 0.00 in0.0 mm 0.00 in0.0 mm 0.28 in7.1 mm
08:07 PM 57.4°F14.1°C 55.4°F13.0°C 93% Calm Calm -- 29.90 in1012.5 mb 0.00 in0.0 mm 0.00 in0.0 mm 0.28 in7.1 mm
08:09 PM 57.6°F14.2°C 55.6°F13.1°C 93% Calm Calm -- 29.90 in1012.5 mb 0.00 in0.0 mm 0.00 in0.0 mm 0.28 in7.1 mm
08:11 PM 57.6°F14.2°C 55.8°F13.2°C 94% Calm Calm -- 29.91 in1012.9 mb 0.00 in0.0 mm 0.00 in0.0 mm 0.28 in7.1 mm
08:13 PM 57.9°F14.4°C 56.2°F13.4°C 94% Calm Calm -- 29.91 in1012.9 mb 0.00 in0.0 mm 0.00 in0.0 mm 0.28 in7.1 mm
08:15 PM 58.1°F14.5°C 56.4°F13.6°C 94% 8.3 mph E13.4 kmh E 9.8 mph15.8 kmh 29.90 in1012.5 mb 0.00 in0.0 mm 0.00 in0.0 mm 0.28 in7.1 mm
08:17 PM 58.3°F14.6°C 56.6°F13.7°C 94% 5.4 mph E8.7 kmh E 6.9 mph11.1 kmh 29.91 in1012.9 mb 0.00 in0.0 mm 0.00 in0.0 mm 0.28 in7.1 mm
08:19 PM 58.5°F14.7°C 56.7°F13.7°C 94% 6.9 mph E11.1 kmh E 7.6 mph12.2 kmh 29.90 in1012.5 mb 0.00 in0.0 mm 0.00 in0.0 mm 0.28 in7.1 mm
08:21 PM 58.6°F14.8°C 56.9°F13.8°C 94% 4.5 mph E7.2 kmh E 5.4 mph8.7 kmh 29.90 in1012.5 mb 0.00 in0.0 mm 0.00 in0.0 mm 0.28 in7.1 mm
08:23 PM 58.6°F14.8°C 56.9°F13.8°C 94% 3.8 mph E6.1 kmh E 5.4 mph8.7 kmh 29.90 in1012.5 mb 0.00 in0.0 mm 0.00 in0.0 mm 0.28 in7.1 mm
08:25 PM 58.6°F14.8°C 56.6°F13.7°C 93% 3.8 mph E6.1 kmh E 4.5 mph7.2 kmh 29.91 in1012.9 mb 0.00 in0.0 mm 0.00 in0.0 mm 0.28 in7.1 mm
08:27 PM 58.6°F14.8°C 56.3°F13.5°C 92% 4.5 mph E7.2 kmh E 5.4 mph8.7 kmh 29.91 in1012.9 mb 0.00 in0.0 mm 0.00 in0.0 mm 0.28 in7.1 mm
08:29 PM 58.8°F14.9°C 56.2°F13.4°C 91% 4.5 mph E7.2 kmh E 5.4 mph8.7 kmh 29.91 in1012.9 mb 0.00 in0.0 mm 0.00 in0.0 mm 0.28 in7.1 mm
08:31 PM 58.8°F14.9°C 55.9°F13.3°C 90% 5.4 mph E8.7 kmh E 6.0 mph9.7 kmh 29.91 in1012.9 mb 0.00 in0.0 mm 0.00 in0.0 mm 0.28 in7.1 mm
08:33 PM 58.8°F14.9°C 55.6°F13.1°C 89% 6.0 mph ENE9.7 kmh ENE 6.9 mph11.1 kmh 29.90 in1012.5 mb 0.00 in0.0 mm 0.00 in0.0 mm 0.28 in7.1 mm
08:35 PM 59.0°F15.0°C 55.8°F13.2°C 89% 6.9 mph SE11.1 kmh SE 7.6 mph12.2 kmh 29.91 in1012.9 mb 0.00 in0.0 mm 0.00 in0.0 mm 0.28 in7.1 mm
08:37 PM 58.8°F14.9°C 55.0°F12.8°C 87% 5.4 mph SE8.7 kmh SE 6.9 mph11.1 kmh 29.91 in1012.9 mb 0.00 in0.0 mm 0.00 in0.0 mm 0.28 in7.1 mm
08:39 PM 58.8°F14.9°C 55.0°F12.8°C 87% 3.8 mph SE6.1 kmh SE 5.4 mph8.7 kmh 29.91 in1012.9 mb 0.00 in0.0 mm 0.00 in0.0 mm 0.28 in7.1 mm
08:41 PM 58.8°F14.9°C 54.6°F12.6°C 86% 3.1 mph ENE5.0 kmh ENE 4.5 mph7.2 kmh 29.92 in1013.2 mb 0.00 in0.0 mm 0.00 in0.0 mm 0.28 in7.1 mm
08:43 PM 58.6°F14.8°C 54.1°F12.3°C 85% 2.2 mph SE3.5 kmh SE 3.8 mph6.1 kmh 29.91 in1012.9 mb 0.00 in0.0 mm 0.00 in0.0 mm 0.28 in7.1 mm
08:45 PM 58.6°F14.8°C 54.1°F12.3°C 85% 3.1 mph S5.0 kmh S 3.8 mph6.1 kmh 29.91 in1012.9 mb 0.00 in0.0 mm 0.00 in0.0 mm 0.28 in7.1 mm
08:47 PM 58.6°F14.8°C 54.1°F12.3°C 85% 5.4 mph ENE8.7 kmh ENE 6.0 mph9.7 kmh 29.91 in1012.9 mb 0.00 in0.0 mm 0.00 in0.0 mm 0.28 in7.1 mm
08:49 PM 58.6°F14.8°C 53.8°F12.1°C 84% 6.9 mph E11.1 kmh E 7.6 mph12.2 kmh 29.92 in1013.2 mb 0.00 in0.0 mm 0.00 in0.0 mm 0.28 in7.1 mm
08:51 PM 58.6°F14.8°C 53.8°F12.1°C 84% 6.9 mph SE11.1 kmh SE 8.3 mph13.4 kmh 29.91 in1012.9 mb 0.00 in0.0 mm 0.00 in0.0 mm 0.28 in7.1 mm
08:53 PM 58.6°F14.8°C 53.8°F12.1°C 84% 5.4 mph E8.7 kmh E 6.9 mph11.1 kmh 29.91 in1012.9 mb 0.00 in0.0 mm 0.00 in0.0 mm 0.28 in7.1 mm
08:55 PM 58.8°F14.9°C 54.3°F12.4°C 85% 5.4 mph S8.7 kmh S 6.9 mph11.1 kmh 29.91 in1012.9 mb 0.00 in0.0 mm 0.00 in0.0 mm 0.28 in7.1 mm
08:57 PM 59.0°F15.0°C 54.5°F12.5°C 85% 3.1 mph E5.0 kmh E 3.8 mph6.1 kmh 29.91 in1012.9 mb 0.00 in0.0 mm 0.00 in0.0 mm 0.28 in7.1 mm
08:59 PM 59.0°F15.0°C 54.5°F12.5°C 85% 2.2 mph SE3.5 kmh SE 3.8 mph6.1 kmh 29.91 in1012.9 mb 0.00 in0.0 mm 0.00 in0.0 mm 0.28 in7.1 mm
09:01 PM 59.0°F15.0°C 54.5°F12.5°C 85% 1.6 mph E2.6 kmh E 3.1 mph5.0 kmh 29.91 in1012.9 mb 0.00 in0.0 mm 0.00 in0.0 mm 0.28 in7.1 mm
09:03 PM 59.0°F15.0°C 54.2°F12.3°C 84% 1.6 mph SE2.6 kmh SE 2.2 mph3.5 kmh 29.92 in1013.2 mb 0.00 in0.0 mm 0.00 in0.0 mm 0.28 in7.1 mm
09:05 PM 58.8°F14.9°C 54.0°F12.2°C 84% 4.5 mph SE7.2 kmh SE 6.0 mph9.7 kmh 29.91 in1012.9 mb 0.00 in0.0 mm 0.00 in0.0 mm 0.28 in7.1 mm
09:07 PM 58.8°F14.9°C 54.0°F12.2°C 84% 3.8 mph SE6.1 kmh SE 4.5 mph7.2 kmh 29.91 in1012.9 mb 0.00 in0.0 mm 0.00 in0.0 mm 0.28 in7.1 mm
09:09 PM 58.8°F14.9°C 53.7°F12.1°C 83% 0.7 mph SE1.1 kmh SE 1.6 mph2.6 kmh 29.91 in1012.9 mb 0.00 in0.0 mm 0.00 in0.0 mm 0.28 in7.1 mm
09:11 PM 58.8°F14.9°C 53.7°F12.1°C 83% 1.6 mph SE2.6 kmh SE 3.1 mph5.0 kmh 29.91 in1012.9 mb 0.00 in0.0 mm 0.00 in0.0 mm 0.28 in7.1 mm
09:13 PM 58.8°F14.9°C 53.7°F12.1°C 83% 5.4 mph E8.7 kmh E 6.9 mph11.1 kmh 29.91 in1012.9 mb 0.00 in0.0 mm 0.00 in0.0 mm 0.28 in7.1 mm
09:15 PM 58.6°F14.8°C 53.5°F11.9°C 83% 4.5 mph E7.2 kmh E 6.0 mph9.7 kmh 29.92 in1013.2 mb 0.00 in0.0 mm 0.00 in0.0 mm 0.28 in7.1 mm
09:17 PM 58.8°F14.9°C 53.7°F12.1°C 83% 4.5 mph E7.2 kmh E 6.0 mph9.7 kmh 29.92 in1013.2 mb 0.00 in0.0 mm 0.00 in0.0 mm 0.28 in7.1 mm
09:19 PM 59.0°F15.0°C 53.8°F12.1°C 83% 9.2 mph E14.8 kmh E 11.4 mph18.3 kmh 29.91 in1012.9 mb 0.00 in0.0 mm 0.00 in0.0 mm 0.28 in7.1 mm
09:21 PM 59.0°F15.0°C 54.2°F12.3°C 84% 6.0 mph E9.7 kmh E 7.6 mph12.2 kmh 29.91 in1012.9 mb 0.00 in0.0 mm 0.00 in0.0 mm 0.28 in7.1 mm
09:23 PM 59.2°F15.1°C 54.4°F12.4°C 84% 7.6 mph E12.2 kmh E 8.3 mph13.4 kmh 29.92 in1013.2 mb 0.00 in0.0 mm 0.00 in0.0 mm 0.28 in7.1 mm
09:25 PM 59.4°F15.2°C 54.5°F12.5°C 84% 5.4 mph E8.7 kmh E 6.0 mph9.7 kmh 29.92 in1013.2 mb 0.00 in0.0 mm 0.00 in0.0 mm 0.28 in7.1 mm
09:27 PM 59.4°F15.2°C 54.5°F12.5°C 84% 6.0 mph E9.7 kmh E 7.6 mph12.2 kmh 29.92 in1013.2 mb 0.00 in0.0 mm 0.00 in0.0 mm 0.28 in7.1 mm
09:29 PM 59.4°F15.2°C 54.5°F12.5°C 84% 7.6 mph E12.2 kmh E 8.3 mph13.4 kmh 29.92 in1013.2 mb 0.00 in0.0 mm 0.00 in0.0 mm 0.28 in7.1 mm
09:31 PM 59.4°F15.2°C 54.5°F12.5°C 84% 6.9 mph E11.1 kmh E 8.3 mph13.4 kmh 29.92 in1013.2 mb 0.00 in0.0 mm 0.00 in0.0 mm 0.28 in7.1 mm
09:34 PM 59.4°F15.2°C 54.5°F12.5°C 84% 6.0 mph E9.7 kmh E 7.6 mph12.2 kmh 29.92 in1013.2 mb 0.00 in0.0 mm 0.00 in0.0 mm 0.28 in7.1 mm
09:36 PM 59.4°F15.2°C 54.5°F12.5°C 84% 7.6 mph E12.2 kmh E 9.2 mph14.8 kmh 29.92 in1013.2 mb 0.00 in0.0 mm 0.00 in0.0 mm 0.28 in7.1 mm
09:38 PM 59.5°F15.3°C 54.7°F12.6°C 84% 6.9 mph E11.1 kmh E 8.3 mph13.4 kmh 29.92 in1013.2 mb 0.00 in0.0 mm 0.00 in0.0 mm 0.28 in7.1 mm
09:40 PM 59.5°F15.3°C 54.7°F12.6°C 84% 8.3 mph E13.4 kmh E 9.8 mph15.8 kmh 29.92 in1013.2 mb 0.00 in0.0 mm 0.00 in0.0 mm 0.28 in7.1 mm
09:42 PM 59.5°F15.3°C 54.7°F12.6°C 84% 6.9 mph E11.1 kmh E 7.6 mph12.2 kmh 29.92 in1013.2 mb 0.00 in0.0 mm 0.00 in0.0 mm 0.28 in7.1 mm
09:44 PM 59.5°F15.3°C 55.0°F12.8°C 85% 7.6 mph E12.2 kmh E 9.2 mph14.8 kmh 29.92 in1013.2 mb 0.00 in0.0 mm 0.00 in0.0 mm 0.28 in7.1 mm
09:46 PM 59.5°F15.3°C 55.0°F12.8°C 85% 8.3 mph E13.4 kmh E 9.8 mph15.8 kmh 29.92 in1013.2 mb 0.00 in0.0 mm 0.00 in0.0 mm 0.28 in7.1 mm
09:48 PM 59.5°F15.3°C 55.0°F12.8°C 85% 8.3 mph E13.4 kmh E 9.2 mph14.8 kmh 29.92 in1013.2 mb 0.00 in0.0 mm 0.00 in0.0 mm 0.28 in7.1 mm
09:50 PM 59.5°F15.3°C 54.7°F12.6°C 84% 6.0 mph NE9.7 kmh NE 6.9 mph11.1 kmh 29.92 in1013.2 mb 0.00 in0.0 mm 0.00 in0.0 mm 0.28 in7.1 mm
09:52 PM 59.5°F15.3°C 54.7°F12.6°C 84% 6.0 mph NE9.7 kmh NE 6.9 mph11.1 kmh 29.92 in1013.2 mb 0.00 in0.0 mm 0.00 in0.0 mm 0.28 in7.1 mm
09:54 PM 59.4°F15.2°C 54.5°F12.5°C 84% 6.9 mph NE11.1 kmh NE 6.9 mph11.1 kmh 29.92 in1013.2 mb 0.00 in0.0 mm 0.00 in0.0 mm 0.28 in7.1 mm
09:56 PM 59.4°F15.2°C 54.9°F12.7°C 85% 6.9 mph E11.1 kmh E 8.3 mph13.4 kmh 29.93 in1013.5 mb 0.00 in0.0 mm 0.00 in0.0 mm 0.28 in7.1 mm
09:58 PM 59.4°F15.2°C 54.9°F12.7°C 85% 9.2 mph E14.8 kmh E 9.8 mph15.8 kmh 29.93 in1013.5 mb 0.00 in0.0 mm 0.00 in0.0 mm 0.28 in7.1 mm
10:00 PM 59.4°F15.2°C 54.9°F12.7°C 85% 9.2 mph E14.8 kmh E 9.8 mph15.8 kmh 29.92 in1013.2 mb 0.00 in0.0 mm 0.00 in0.0 mm 0.28 in7.1 mm
10:02 PM 59.4°F15.2°C 55.2°F12.9°C 86% 7.6 mph E12.2 kmh E 9.2 mph14.8 kmh 29.92 in1013.2 mb 0.00 in0.0 mm 0.00 in0.0 mm 0.28 in7.1 mm
10:04 PM 59.4°F15.2°C 55.2°F12.9°C 86% 8.3 mph E13.4 kmh E 9.2 mph14.8 kmh 29.92 in1013.2 mb 0.00 in0.0 mm 0.00 in0.0 mm 0.28 in7.1 mm
10:06 PM 59.4°F15.2°C 55.2°F12.9°C 86% 8.3 mph NE13.4 kmh NE 9.8 mph15.8 kmh 29.92 in1013.2 mb 0.00 in0.0 mm 0.00 in0.0 mm 0.28 in7.1 mm
10:08 PM 59.5°F15.3°C 55.7°F13.2°C 87% 4.5 mph E7.2 kmh E 6.0 mph9.7 kmh 29.92 in1013.2 mb 0.00 in0.0 mm 0.00 in0.0 mm 0.28 in7.1 mm
10:10 PM 59.5°F15.3°C 55.7°F13.2°C 87% 4.5 mph E7.2 kmh E 6.9 mph11.1 kmh 29.92 in1013.2 mb 0.00 in0.0 mm 0.00 in0.0 mm 0.28 in7.1 mm
10:12 PM 59.5°F15.3°C 55.7°F13.2°C 87% 3.1 mph E5.0 kmh E 5.4 mph8.7 kmh 29.92 in1013.2 mb 0.00 in0.0 mm 0.00 in0.0 mm 0.28 in7.1 mm
10:14 PM 59.4°F15.2°C 55.8°F13.2°C 88% 6.0 mph E9.7 kmh E 7.6 mph12.2 kmh 29.92 in1013.2 mb 0.00 in0.0 mm 0.00 in0.0 mm 0.28 in7.1 mm
10:16 PM 59.4°F15.2°C 55.8°F13.2°C 88% 3.8 mph E6.1 kmh E 4.5 mph7.2 kmh 29.92 in1013.2 mb 0.00 in0.0 mm 0.00 in0.0 mm 0.28 in7.1 mm
10:18 PM 59.4°F15.2°C 55.8°F13.2°C 88% 5.4 mph E8.7 kmh E 6.0 mph9.7 kmh 29.92 in1013.2 mb 0.00 in0.0 mm 0.00 in0.0 mm 0.28 in7.1 mm
10:20 PM 59.4°F15.2°C 55.8°F13.2°C 88% 3.1 mph ENE5.0 kmh ENE 4.5 mph7.2 kmh 29.92 in1013.2 mb 0.00 in0.0 mm 0.00 in0.0 mm 0.28 in7.1 mm
10:22 PM 59.4°F15.2°C 55.8°F13.2°C 88% 3.1 mph E5.0 kmh E 3.8 mph6.1 kmh 29.92 in1013.2 mb 0.00 in0.0 mm 0.00 in0.0 mm 0.28 in7.1 mm
10:24 PM 59.2°F15.1°C 55.6°F13.1°C 88% 5.4 mph E8.7 kmh E 6.0 mph9.7 kmh 29.92 in1013.2 mb 0.00 in0.0 mm 0.00 in0.0 mm 0.28 in7.1 mm
10:26 PM 59.2°F15.1°C 55.6°F13.1°C 88% 5.4 mph ENE8.7 kmh ENE 6.9 mph11.1 kmh 29.92 in1013.2 mb 0.00 in0.0 mm 0.00 in0.0 mm 0.28 in7.1 mm
10:28 PM 59.2°F15.1°C 55.6°F13.1°C 88% 6.0 mph ENE9.7 kmh ENE 7.6 mph12.2 kmh 29.92 in1013.2 mb 0.00 in0.0 mm 0.00 in0.0 mm 0.28 in7.1 mm
10:30 PM 59.2°F15.1°C 55.6°F13.1°C 88% 5.4 mph E8.7 kmh E 7.6 mph12.2 kmh 29.92 in1013.2 mb 0.00 in0.0 mm 0.00 in0.0 mm 0.28 in7.1 mm
10:32 PM 59.2°F15.1°C 55.6°F13.1°C 88% 6.0 mph SE9.7 kmh SE 7.6 mph12.2 kmh 29.92 in1013.2 mb 0.00 in0.0 mm 0.00 in0.0 mm 0.28 in7.1 mm
10:34 PM 59.2°F15.1°C 55.6°F13.1°C 88% 4.5 mph ENE7.2 kmh ENE 5.4 mph8.7 kmh 29.92 in1013.2 mb 0.00 in0.0 mm 0.00 in0.0 mm 0.28 in7.1 mm
10:36 PM 59.2°F15.1°C 55.3°F12.9°C 87% 4.5 mph E7.2 kmh E 5.4 mph8.7 kmh 29.92 in1013.2 mb 0.00 in0.0 mm 0.00 in0.0 mm 0.28 in7.1 mm
10:38 PM 59.4°F15.2°C 55.8°F13.2°C 88% 6.0 mph E9.7 kmh E 7.6 mph12.2 kmh 29.92 in1013.2 mb 0.00 in0.0 mm 0.00 in0.0 mm 0.28 in7.1 mm
10:40 PM 59.4°F15.2°C 55.8°F13.2°C 88% 6.9 mph ENE11.1 kmh ENE 8.3 mph13.4 kmh 29.92 in1013.2 mb 0.00 in0.0 mm 0.00 in0.0 mm 0.28 in7.1 mm
10:42 PM 59.5°F15.3°C 56.3°F13.5°C 89% 6.0 mph E9.7 kmh E 7.6 mph12.2 kmh 29.92 in1013.2 mb 0.00 in0.0 mm 0.00 in0.0 mm 0.28 in7.1 mm
10:44 PM 59.5°F15.3°C 56.3°F13.5°C 89% 9.2 mph E14.8 kmh E 9.8 mph15.8 kmh 29.92 in1013.2 mb 0.00 in0.0 mm 0.00 in0.0 mm 0.28 in7.1 mm
10:46 PM 59.7°F15.4°C 56.5°F13.6°C 89% 8.3 mph E13.4 kmh E 9.8 mph15.8 kmh 29.92 in1013.2 mb 0.00 in0.0 mm 0.00 in0.0 mm 0.28 in7.1 mm
10:48 PM 59.9°F15.5°C 57.0°F13.9°C 90% 9.2 mph NE14.8 kmh NE 9.8 mph15.8 kmh 29.92 in1013.2 mb 0.00 in0.0 mm 0.00 in0.0 mm 0.28 in7.1 mm
10:50 PM 59.9°F15.5°C 57.0°F13.9°C 90% 8.3 mph E13.4 kmh E 9.2 mph14.8 kmh 29.92 in1013.2 mb 0.00 in0.0 mm 0.00 in0.0 mm 0.28 in7.1 mm
10:52 PM 60.1°F15.6°C 57.1°F13.9°C 90% 8.3 mph E13.4 kmh E 9.2 mph14.8 kmh 29.92 in1013.2 mb 0.00 in0.0 mm 0.00 in0.0 mm 0.28 in7.1 mm
10:54 PM 60.1°F15.6°C 57.1°F13.9°C 90% 7.6 mph E12.2 kmh E 8.3 mph13.4 kmh 29.92 in1013.2 mb 0.00 in0.0 mm 0.00 in0.0 mm 0.28 in7.1 mm
10:56 PM 60.1°F15.6°C 57.1°F13.9°C 90% 8.3 mph E13.4 kmh E 9.8 mph15.8 kmh 29.92 in1013.2 mb 0.00 in0.0 mm 0.00 in0.0 mm 0.28 in7.1 mm
10:58 PM 60.3°F15.7°C 57.3°F14.1°C 90% 8.3 mph E13.4 kmh E 9.8 mph15.8 kmh 29.93 in1013.5 mb 0.00 in0.0 mm 0.00 in0.0 mm 0.28 in7.1 mm
11:00 PM 60.4°F15.8°C 57.5°F14.2°C 90% 9.8 mph E15.8 kmh E 10.7 mph17.2 kmh 29.92 in1013.2 mb 0.00 in0.0 mm 0.00 in0.0 mm 0.28 in7.1 mm
11:02 PM 60.4°F15.8°C 57.5°F14.2°C 90% 9.8 mph E15.8 kmh E 10.7 mph17.2 kmh 29.92 in1013.2 mb 0.00 in0.0 mm 0.00 in0.0 mm 0.28 in7.1 mm
11:04 PM 60.4°F15.8°C 57.5°F14.2°C 90% 11.4 mph NE18.3 kmh NE 12.1 mph19.5 kmh 29.93 in1013.5 mb 0.00 in0.0 mm 0.00 in0.0 mm 0.28 in7.1 mm
11:06 PM 60.4°F15.8°C 57.5°F14.2°C 90% 10.7 mph E17.2 kmh E 12.1 mph19.5 kmh 29.92 in1013.2 mb 0.00 in0.0 mm 0.00 in0.0 mm 0.28 in7.1 mm
11:08 PM 60.6°F15.9°C 57.4°F14.1°C 89% 9.8 mph E15.8 kmh E 11.4 mph18.3 kmh 29.93 in1013.5 mb 0.00 in0.0 mm 0.00 in0.0 mm 0.28 in7.1 mm
11:10 PM 60.6°F15.9°C 57.4°F14.1°C 89% 8.3 mph E13.4 kmh E 9.2 mph14.8 kmh 29.93 in1013.5 mb 0.00 in0.0 mm 0.00 in0.0 mm 0.28 in7.1 mm
11:12 PM 60.8°F16.0°C 57.5°F14.2°C 89% 10.7 mph NE17.2 kmh NE 11.4 mph18.3 kmh 29.92 in1013.2 mb 0.00 in0.0 mm 0.00 in0.0 mm 0.28 in7.1 mm
11:14 PM 60.8°F16.0°C 57.5°F14.2°C 89% 10.7 mph NE17.2 kmh NE 11.4 mph18.3 kmh 29.93 in1013.5 mb 0.00 in0.0 mm 0.00 in0.0 mm 0.28 in7.1 mm
11:16 PM 60.8°F16.0°C 57.5°F14.2°C 89% 11.4 mph NE18.3 kmh NE 13.0 mph20.9 kmh 29.93 in1013.5 mb 0.00 in0.0 mm 0.00 in0.0 mm 0.28 in7.1 mm
11:18 PM 60.8°F16.0°C 57.5°F14.2°C 89% 10.7 mph NE17.2 kmh NE 12.1 mph19.5 kmh 29.93 in1013.5 mb 0.00 in0.0 mm 0.00 in0.0 mm 0.28 in7.1 mm
11:20 PM 60.8°F16.0°C 57.5°F14.2°C 89% 11.4 mph NE18.3 kmh NE 12.1 mph19.5 kmh 29.92 in1013.2 mb 0.00 in0.0 mm 0.00 in0.0 mm 0.28 in7.1 mm
11:22 PM 60.8°F16.0°C 57.5°F14.2°C 89% 12.1 mph NE19.5 kmh NE 13.0 mph20.9 kmh 29.92 in1013.2 mb 0.00 in0.0 mm 0.00 in0.0 mm 0.28 in7.1 mm
11:24 PM 60.8°F16.0°C 57.5°F14.2°C 89% 11.4 mph NE18.3 kmh NE 12.1 mph19.5 kmh 29.93 in1013.5 mb 0.00 in0.0 mm 0.00 in0.0 mm 0.28 in7.1 mm
11:26 PM 60.8°F16.0°C 57.2°F14.0°C 88% 10.7 mph NE17.2 kmh NE 11.4 mph18.3 kmh 29.92 in1013.2 mb 0.00 in0.0 mm 0.00 in0.0 mm 0.28 in7.1 mm
11:28 PM 60.8°F16.0°C 57.2°F14.0°C 88% 10.7 mph NE17.2 kmh NE 11.4 mph18.3 kmh 29.93 in1013.5 mb 0.00 in0.0 mm 0.00 in0.0 mm 0.28 in7.1 mm
11:30 PM 60.8°F16.0°C 57.2°F14.0°C 88% 9.8 mph NE15.8 kmh NE 10.7 mph17.2 kmh 29.93 in1013.5 mb 0.00 in0.0 mm 0.00 in0.0 mm 0.28 in7.1 mm
11:32 PM 60.6°F15.9°C 57.0°F13.9°C 88% 9.2 mph NE14.8 kmh NE 9.8 mph15.8 kmh 29.93 in1013.5 mb 0.00 in0.0 mm 0.00 in0.0 mm 0.28 in7.1 mm
11:34 PM 60.6°F15.9°C 57.0°F13.9°C 88% 8.3 mph NE13.4 kmh NE 9.2 mph14.8 kmh 29.93 in1013.5 mb 0.00 in0.0 mm 0.00 in0.0 mm 0.28 in7.1 mm
11:36 PM 60.6°F15.9°C 57.0°F13.9°C 88% 8.3 mph NE13.4 kmh NE 10.7 mph17.2 kmh 29.93 in1013.5 mb 0.00 in0.0 mm 0.00 in0.0 mm 0.28 in7.1 mm
11:38 PM 60.6°F15.9°C 57.0°F13.9°C 88% 9.8 mph NE15.8 kmh NE 10.7 mph17.2 kmh 29.93 in1013.5 mb 0.00 in0.0 mm 0.00 in0.0 mm 0.28 in7.1 mm
11:40 PM 60.6°F15.9°C 57.0°F13.9°C 88% 11.4 mph NE18.3 kmh NE 12.1 mph19.5 kmh 29.92 in1013.2 mb 0.00 in0.0 mm 0.00 in0.0 mm 0.28 in7.1 mm
11:42 PM 60.6°F15.9°C 57.0°F13.9°C 88% 9.8 mph NE15.8 kmh NE 12.1 mph19.5 kmh 29.93 in1013.5 mb 0.00 in0.0 mm 0.00 in0.0 mm 0.28 in7.1 mm
11:44 PM 60.4°F15.8°C 56.9°F13.8°C 88% 11.4 mph NE18.3 kmh NE 12.1 mph19.5 kmh 29.93 in1013.5 mb 0.00 in0.0 mm 0.00 in0.0 mm 0.28 in7.1 mm
11:46 PM 60.4°F15.8°C 56.9°F13.8°C 88% 9.8 mph NE15.8 kmh NE 10.7 mph17.2 kmh 29.93 in1013.5 mb 0.00 in0.0 mm 0.00 in0.0 mm 0.28 in7.1 mm
11:48 PM 60.4°F15.8°C 56.9°F13.8°C 88% 10.7 mph E17.2 kmh E 11.4 mph18.3 kmh 29.93 in1013.5 mb 0.00 in0.0 mm 0.00 in0.0 mm 0.28 in7.1 mm
11:50 PM 60.4°F15.8°C 57.2°F14.0°C 89% 10.7 mph NE17.2 kmh NE 11.4 mph18.3 kmh 29.93 in1013.5 mb 0.00 in0.0 mm 0.00 in0.0 mm 0.28 in7.1 mm
11:52 PM 60.4°F15.8°C 57.2°F14.0°C 89% 11.4 mph NE18.3 kmh NE 12.1 mph19.5 kmh 29.93 in1013.5 mb 0.00 in0.0 mm 0.00 in0.0 mm 0.28 in7.1 mm
11:54 PM 60.4°F15.8°C 57.2°F14.0°C 89% 12.1 mph E19.5 kmh E 13.0 mph20.9 kmh 29.93 in1013.5 mb 0.00 in0.0 mm 0.00 in0.0 mm 0.28 in7.1 mm
11:56 PM 60.4°F15.8°C 57.2°F14.0°C 89% 11.4 mph NE18.3 kmh NE 13.0 mph20.9 kmh 29.93 in1013.5 mb 0.00 in0.0 mm 0.00 in0.0 mm 0.28 in7.1 mm
11:58 PM 60.4°F15.8°C 57.5°F14.2°C 90% 11.4 mph NE18.3 kmh NE 13.0 mph20.9 kmh 29.93 in1013.5 mb 0.00 in0.0 mm 0.00 in0.0 mm 0.28 in7.1 mm